<?xml version="1.0" encoding="UTF-8" standalone="no" ?>
<gpx xmlns="http://www.topografix.com/GPX/1/1" xmlns:xsi="http://www.w3.org/2001/XMLSchema-instance" xsi:schemaLocation="http://www.topografix.com/GPX/1/1 http://www.topografix.com/GPX/1/1/gpx.xsd" version="1.1" creator="VisuGPX - https://www.visugpx.com">
  <metadata>
    <name>Grand Renaud, Petit et Croix du Carrelet</name>
    <desc><![CDATA[Un petite boucle qui semble possible !]]></desc>
  </metadata>
  <trk>
    <name><![CDATA[OpenLayers.Feature.Vector_17028]]></name>
    <trkseg>
      <trkpt lat="45.0183" lon="6.03766">
        <ele>1578</ele>
        <time>2010-04-21T04:43:31Z</time>
      </trkpt>
      <trkpt lat="45.01838" lon="6.03767">
        <ele>1578</ele>
        <time>2010-04-21T04:44:23Z</time>
      </trkpt>
      <trkpt lat="45.01845" lon="6.03766">
        <ele>1578</ele>
        <time>2010-04-21T04:45:03Z</time>
      </trkpt>
      <trkpt lat="45.01841" lon="6.0377">
        <ele>1578</ele>
        <time>2010-04-21T04:46:46Z</time>
      </trkpt>
      <trkpt lat="45.01841" lon="6.03766">
        <ele>1578</ele>
        <time>2010-04-21T04:48:07Z</time>
      </trkpt>
      <trkpt lat="45.01838" lon="6.03767">
        <ele>1578</ele>
        <time>2010-04-21T04:49:52Z</time>
      </trkpt>
      <trkpt lat="45.0184" lon="6.03764">
        <ele>1578</ele>
        <time>2010-04-21T04:52:11Z</time>
      </trkpt>
      <trkpt lat="45.01838" lon="6.03764">
        <ele>1578</ele>
        <time>2010-04-21T04:53:24Z</time>
      </trkpt>
      <trkpt lat="45.01837" lon="6.03761">
        <ele>1578</ele>
        <time>2010-04-21T04:57:23Z</time>
      </trkpt>
      <trkpt lat="45.01836" lon="6.03761">
        <ele>1578</ele>
        <time>2010-04-21T04:57:35Z</time>
      </trkpt>
      <trkpt lat="45.01838" lon="6.03763">
        <ele>1578</ele>
        <time>2010-04-21T04:57:43Z</time>
      </trkpt>
      <trkpt lat="45.01838" lon="6.03763">
        <ele>1578</ele>
        <time>2010-04-21T04:57:46Z</time>
      </trkpt>
      <trkpt lat="45.01837" lon="6.03762">
        <ele>1578</ele>
        <time>2010-04-21T04:57:50Z</time>
      </trkpt>
      <trkpt lat="45.01839" lon="6.03764">
        <ele>1578</ele>
        <time>2010-04-21T04:58:56Z</time>
      </trkpt>
      <trkpt lat="45.01841" lon="6.03763">
        <ele>1578</ele>
        <time>2010-04-21T04:59:09Z</time>
      </trkpt>
      <trkpt lat="45.01836" lon="6.03759">
        <ele>1578</ele>
        <time>2010-04-21T04:59:22Z</time>
      </trkpt>
      <trkpt lat="45.01834" lon="6.03754">
        <ele>1578</ele>
        <time>2010-04-21T04:59:26Z</time>
      </trkpt>
      <trkpt lat="45.01831" lon="6.0375">
        <ele>1578</ele>
        <time>2010-04-21T04:59:30Z</time>
      </trkpt>
      <trkpt lat="45.01814" lon="6.03732">
        <ele>1578</ele>
        <time>2010-04-21T04:59:48Z</time>
      </trkpt>
      <trkpt lat="45.01799" lon="6.03725">
        <ele>1578</ele>
        <time>2010-04-21T05:00:03Z</time>
      </trkpt>
      <trkpt lat="45.01791" lon="6.03723">
        <ele>1549</ele>
        <time>2010-04-21T05:00:12Z</time>
      </trkpt>
      <trkpt lat="45.0178" lon="6.03696">
        <ele>1560</ele>
        <time>2010-04-21T05:00:30Z</time>
      </trkpt>
      <trkpt lat="45.01779" lon="6.03656">
        <ele>1560</ele>
        <time>2010-04-21T05:00:51Z</time>
      </trkpt>
      <trkpt lat="45.0178" lon="6.03626">
        <ele>1560</ele>
        <time>2010-04-21T05:01:08Z</time>
      </trkpt>
      <trkpt lat="45.01782" lon="6.03626">
        <ele>1560</ele>
        <time>2010-04-21T05:01:20Z</time>
      </trkpt>
      <trkpt lat="45.01781" lon="6.03626">
        <ele>1560</ele>
        <time>2010-04-21T05:01:47Z</time>
      </trkpt>
      <trkpt lat="45.01782" lon="6.03627">
        <ele>1560</ele>
        <time>2010-04-21T05:02:16Z</time>
      </trkpt>
      <trkpt lat="45.01782" lon="6.03626">
        <ele>1560</ele>
        <time>2010-04-21T05:02:17Z</time>
      </trkpt>
      <trkpt lat="45.01784" lon="6.03599">
        <ele>1565</ele>
        <time>2010-04-21T05:02:35Z</time>
      </trkpt>
      <trkpt lat="45.01788" lon="6.03574">
        <ele>1565</ele>
        <time>2010-04-21T05:02:53Z</time>
      </trkpt>
      <trkpt lat="45.0179" lon="6.03548">
        <ele>1565</ele>
        <time>2010-04-21T05:03:08Z</time>
      </trkpt>
      <trkpt lat="45.01788" lon="6.03527">
        <ele>1576</ele>
        <time>2010-04-21T05:03:22Z</time>
      </trkpt>
      <trkpt lat="45.01787" lon="6.03507">
        <ele>1576</ele>
        <time>2010-04-21T05:03:37Z</time>
      </trkpt>
      <trkpt lat="45.01786" lon="6.03491">
        <ele>1576</ele>
        <time>2010-04-21T05:03:50Z</time>
      </trkpt>
      <trkpt lat="45.01783" lon="6.03471">
        <ele>1576</ele>
        <time>2010-04-21T05:04:07Z</time>
      </trkpt>
      <trkpt lat="45.01773" lon="6.03443">
        <ele>1595</ele>
        <time>2010-04-21T05:04:25Z</time>
      </trkpt>
      <trkpt lat="45.01762" lon="6.03419">
        <ele>1595</ele>
        <time>2010-04-21T05:04:40Z</time>
      </trkpt>
      <trkpt lat="45.01759" lon="6.03413">
        <ele>1595</ele>
        <time>2010-04-21T05:04:44Z</time>
      </trkpt>
      <trkpt lat="45.01744" lon="6.03394">
        <ele>1595</ele>
        <time>2010-04-21T05:04:57Z</time>
      </trkpt>
      <trkpt lat="45.0174" lon="6.03384">
        <ele>1595</ele>
        <time>2010-04-21T05:05:02Z</time>
      </trkpt>
      <trkpt lat="45.01724" lon="6.03369">
        <ele>1618</ele>
        <time>2010-04-21T05:05:16Z</time>
      </trkpt>
      <trkpt lat="45.01712" lon="6.03365">
        <ele>1618</ele>
        <time>2010-04-21T05:05:25Z</time>
      </trkpt>
      <trkpt lat="45.01705" lon="6.03356">
        <ele>1590</ele>
        <time>2010-04-21T05:05:31Z</time>
      </trkpt>
      <trkpt lat="45.01703" lon="6.03352">
        <ele>1590</ele>
        <time>2010-04-21T05:05:35Z</time>
      </trkpt>
      <trkpt lat="45.017" lon="6.03345">
        <ele>1590</ele>
        <time>2010-04-21T05:05:41Z</time>
      </trkpt>
      <trkpt lat="45.01691" lon="6.03333">
        <ele>1590</ele>
        <time>2010-04-21T05:05:52Z</time>
      </trkpt>
      <trkpt lat="45.01686" lon="6.03323">
        <ele>1590</ele>
        <time>2010-04-21T05:06:00Z</time>
      </trkpt>
      <trkpt lat="45.01674" lon="6.03305">
        <ele>1590</ele>
        <time>2010-04-21T05:06:14Z</time>
      </trkpt>
      <trkpt lat="45.01669" lon="6.03296">
        <ele>1590</ele>
        <time>2010-04-21T05:06:27Z</time>
      </trkpt>
      <trkpt lat="45.0167" lon="6.0329">
        <ele>1603</ele>
        <time>2010-04-21T05:06:40Z</time>
      </trkpt>
      <trkpt lat="45.01669" lon="6.03283">
        <ele>1603</ele>
        <time>2010-04-21T05:06:51Z</time>
      </trkpt>
      <trkpt lat="45.01668" lon="6.03272">
        <ele>1603</ele>
        <time>2010-04-21T05:07:03Z</time>
      </trkpt>
      <trkpt lat="45.01669" lon="6.03267">
        <ele>1603</ele>
        <time>2010-04-21T05:07:16Z</time>
      </trkpt>
      <trkpt lat="45.01668" lon="6.03257">
        <ele>1603</ele>
        <time>2010-04-21T05:07:27Z</time>
      </trkpt>
      <trkpt lat="45.01668" lon="6.03255">
        <ele>1603</ele>
        <time>2010-04-21T05:07:41Z</time>
      </trkpt>
      <trkpt lat="45.01667" lon="6.03253">
        <ele>1603</ele>
        <time>2010-04-21T05:08:01Z</time>
      </trkpt>
      <trkpt lat="45.01664" lon="6.03247">
        <ele>1603</ele>
        <time>2010-04-21T05:08:09Z</time>
      </trkpt>
      <trkpt lat="45.01663" lon="6.03237">
        <ele>1603</ele>
        <time>2010-04-21T05:08:24Z</time>
      </trkpt>
      <trkpt lat="45.01659" lon="6.03228">
        <ele>1603</ele>
        <time>2010-04-21T05:08:40Z</time>
      </trkpt>
      <trkpt lat="45.01657" lon="6.03225">
        <ele>1603</ele>
        <time>2010-04-21T05:09:31Z</time>
      </trkpt>
      <trkpt lat="45.01648" lon="6.03228">
        <ele>1603</ele>
        <time>2010-04-21T05:09:46Z</time>
      </trkpt>
      <trkpt lat="45.01643" lon="6.03221">
        <ele>1603</ele>
        <time>2010-04-21T05:10:02Z</time>
      </trkpt>
      <trkpt lat="45.01641" lon="6.03217">
        <ele>1603</ele>
        <time>2010-04-21T05:10:11Z</time>
      </trkpt>
      <trkpt lat="45.01638" lon="6.03211">
        <ele>1603</ele>
        <time>2010-04-21T05:10:26Z</time>
      </trkpt>
      <trkpt lat="45.01634" lon="6.03211">
        <ele>1603</ele>
        <time>2010-04-21T05:10:47Z</time>
      </trkpt>
      <trkpt lat="45.01632" lon="6.03211">
        <ele>1603</ele>
        <time>2010-04-21T05:11:01Z</time>
      </trkpt>
      <trkpt lat="45.01632" lon="6.03213">
        <ele>1603</ele>
        <time>2010-04-21T05:11:16Z</time>
      </trkpt>
      <trkpt lat="45.01632" lon="6.0321">
        <ele>1603</ele>
        <time>2010-04-21T05:11:33Z</time>
      </trkpt>
      <trkpt lat="45.01629" lon="6.03211">
        <ele>1603</ele>
        <time>2010-04-21T05:11:50Z</time>
      </trkpt>
      <trkpt lat="45.01626" lon="6.0321">
        <ele>1603</ele>
        <time>2010-04-21T05:12:06Z</time>
      </trkpt>
      <trkpt lat="45.01624" lon="6.03205">
        <ele>1631</ele>
        <time>2010-04-21T05:12:21Z</time>
      </trkpt>
      <trkpt lat="45.0162" lon="6.03202">
        <ele>1631</ele>
        <time>2010-04-21T05:12:39Z</time>
      </trkpt>
      <trkpt lat="45.01619" lon="6.03198">
        <ele>1631</ele>
        <time>2010-04-21T05:12:45Z</time>
      </trkpt>
      <trkpt lat="45.01617" lon="6.03193">
        <ele>1631</ele>
        <time>2010-04-21T05:13:02Z</time>
      </trkpt>
      <trkpt lat="45.01615" lon="6.03187">
        <ele>1631</ele>
        <time>2010-04-21T05:13:19Z</time>
      </trkpt>
      <trkpt lat="45.01611" lon="6.03187">
        <ele>1631</ele>
        <time>2010-04-21T05:13:32Z</time>
      </trkpt>
      <trkpt lat="45.0161" lon="6.03188">
        <ele>1631</ele>
        <time>2010-04-21T05:13:52Z</time>
      </trkpt>
      <trkpt lat="45.01607" lon="6.03183">
        <ele>1631</ele>
        <time>2010-04-21T05:14:08Z</time>
      </trkpt>
      <trkpt lat="45.01605" lon="6.03184">
        <ele>1631</ele>
        <time>2010-04-21T05:14:25Z</time>
      </trkpt>
      <trkpt lat="45.01605" lon="6.03182">
        <ele>1631</ele>
        <time>2010-04-21T05:14:32Z</time>
      </trkpt>
      <trkpt lat="45.01604" lon="6.03174">
        <ele>1631</ele>
        <time>2010-04-21T05:14:50Z</time>
      </trkpt>
      <trkpt lat="45.01604" lon="6.03174">
        <ele>1631</ele>
        <time>2010-04-21T05:15:03Z</time>
      </trkpt>
      <trkpt lat="45.01601" lon="6.03168">
        <ele>1631</ele>
        <time>2010-04-21T05:15:17Z</time>
      </trkpt>
      <trkpt lat="45.01597" lon="6.03162">
        <ele>1631</ele>
        <time>2010-04-21T05:15:36Z</time>
      </trkpt>
      <trkpt lat="45.01596" lon="6.03156">
        <ele>1631</ele>
        <time>2010-04-21T05:15:52Z</time>
      </trkpt>
      <trkpt lat="45.01594" lon="6.03154">
        <ele>1631</ele>
        <time>2010-04-21T05:16:06Z</time>
      </trkpt>
      <trkpt lat="45.01592" lon="6.03145">
        <ele>1631</ele>
        <time>2010-04-21T05:16:24Z</time>
      </trkpt>
      <trkpt lat="45.01588" lon="6.03136">
        <ele>1631</ele>
        <time>2010-04-21T05:16:40Z</time>
      </trkpt>
      <trkpt lat="45.01585" lon="6.03135">
        <ele>1631</ele>
        <time>2010-04-21T05:16:56Z</time>
      </trkpt>
      <trkpt lat="45.01583" lon="6.03135">
        <ele>1631</ele>
        <time>2010-04-21T05:17:14Z</time>
      </trkpt>
      <trkpt lat="45.01578" lon="6.03136">
        <ele>1631</ele>
        <time>2010-04-21T05:17:33Z</time>
      </trkpt>
      <trkpt lat="45.01577" lon="6.03136">
        <ele>1631</ele>
        <time>2010-04-21T05:17:36Z</time>
      </trkpt>
      <trkpt lat="45.01572" lon="6.03124">
        <ele>1634</ele>
        <time>2010-04-21T05:17:59Z</time>
      </trkpt>
      <trkpt lat="45.01569" lon="6.03121">
        <ele>1634</ele>
        <time>2010-04-21T05:18:14Z</time>
      </trkpt>
      <trkpt lat="45.01566" lon="6.03118">
        <ele>1634</ele>
        <time>2010-04-21T05:18:35Z</time>
      </trkpt>
      <trkpt lat="45.01564" lon="6.0311">
        <ele>1634</ele>
        <time>2010-04-21T05:19:02Z</time>
      </trkpt>
      <trkpt lat="45.01562" lon="6.03104">
        <ele>1634</ele>
        <time>2010-04-21T05:19:17Z</time>
      </trkpt>
      <trkpt lat="45.01557" lon="6.03094">
        <ele>1634</ele>
        <time>2010-04-21T05:19:37Z</time>
      </trkpt>
      <trkpt lat="45.01553" lon="6.03084">
        <ele>1634</ele>
        <time>2010-04-21T05:19:51Z</time>
      </trkpt>
      <trkpt lat="45.01545" lon="6.03076">
        <ele>1634</ele>
        <time>2010-04-21T05:20:12Z</time>
      </trkpt>
      <trkpt lat="45.01543" lon="6.03065">
        <ele>1634</ele>
        <time>2010-04-21T05:20:26Z</time>
      </trkpt>
      <trkpt lat="45.01542" lon="6.03059">
        <ele>1634</ele>
        <time>2010-04-21T05:20:36Z</time>
      </trkpt>
      <trkpt lat="45.0154" lon="6.03057">
        <ele>1701</ele>
        <time>2010-04-21T05:20:56Z</time>
      </trkpt>
      <trkpt lat="45.01539" lon="6.03048">
        <ele>1701</ele>
        <time>2010-04-21T05:21:14Z</time>
      </trkpt>
      <trkpt lat="45.01529" lon="6.03044">
        <ele>1701</ele>
        <time>2010-04-21T05:21:28Z</time>
      </trkpt>
      <trkpt lat="45.01525" lon="6.0304">
        <ele>1698</ele>
        <time>2010-04-21T05:21:44Z</time>
      </trkpt>
      <trkpt lat="45.01518" lon="6.03034">
        <ele>1698</ele>
        <time>2010-04-21T05:22:03Z</time>
      </trkpt>
      <trkpt lat="45.01516" lon="6.03025">
        <ele>1698</ele>
        <time>2010-04-21T05:22:21Z</time>
      </trkpt>
      <trkpt lat="45.01512" lon="6.03016">
        <ele>1698</ele>
        <time>2010-04-21T05:22:35Z</time>
      </trkpt>
      <trkpt lat="45.01505" lon="6.03017">
        <ele>1698</ele>
        <time>2010-04-21T05:22:53Z</time>
      </trkpt>
      <trkpt lat="45.01501" lon="6.03003">
        <ele>1698</ele>
        <time>2010-04-21T05:23:08Z</time>
      </trkpt>
      <trkpt lat="45.01499" lon="6.02994">
        <ele>1698</ele>
        <time>2010-04-21T05:23:28Z</time>
      </trkpt>
      <trkpt lat="45.01504" lon="6.02975">
        <ele>1698</ele>
        <time>2010-04-21T05:23:47Z</time>
      </trkpt>
      <trkpt lat="45.01499" lon="6.02966">
        <ele>1698</ele>
        <time>2010-04-21T05:24:07Z</time>
      </trkpt>
      <trkpt lat="45.0149" lon="6.02953">
        <ele>1696</ele>
        <time>2010-04-21T05:24:29Z</time>
      </trkpt>
      <trkpt lat="45.01489" lon="6.0294">
        <ele>1696</ele>
        <time>2010-04-21T05:24:45Z</time>
      </trkpt>
      <trkpt lat="45.01485" lon="6.02932">
        <ele>1696</ele>
        <time>2010-04-21T05:25:06Z</time>
      </trkpt>
      <trkpt lat="45.01476" lon="6.02914">
        <ele>1696</ele>
        <time>2010-04-21T05:25:43Z</time>
      </trkpt>
      <trkpt lat="45.01477" lon="6.02905">
        <ele>1696</ele>
        <time>2010-04-21T05:26:00Z</time>
      </trkpt>
      <trkpt lat="45.0148" lon="6.02895">
        <ele>1696</ele>
        <time>2010-04-21T05:26:16Z</time>
      </trkpt>
      <trkpt lat="45.01475" lon="6.02882">
        <ele>1696</ele>
        <time>2010-04-21T05:26:34Z</time>
      </trkpt>
      <trkpt lat="45.0147" lon="6.02875">
        <ele>1693</ele>
        <time>2010-04-21T05:26:48Z</time>
      </trkpt>
      <trkpt lat="45.01468" lon="6.02868">
        <ele>1693</ele>
        <time>2010-04-21T05:27:02Z</time>
      </trkpt>
      <trkpt lat="45.01465" lon="6.02864">
        <ele>1693</ele>
        <time>2010-04-21T05:27:16Z</time>
      </trkpt>
      <trkpt lat="45.01466" lon="6.02856">
        <ele>1693</ele>
        <time>2010-04-21T05:27:53Z</time>
      </trkpt>
      <trkpt lat="45.01459" lon="6.02846">
        <ele>1693</ele>
        <time>2010-04-21T05:28:08Z</time>
      </trkpt>
      <trkpt lat="45.01454" lon="6.02841">
        <ele>1738</ele>
        <time>2010-04-21T05:28:22Z</time>
      </trkpt>
      <trkpt lat="45.01454" lon="6.02837">
        <ele>1738</ele>
        <time>2010-04-21T05:28:38Z</time>
      </trkpt>
      <trkpt lat="45.01451" lon="6.02829">
        <ele>1738</ele>
        <time>2010-04-21T05:28:56Z</time>
      </trkpt>
      <trkpt lat="45.01446" lon="6.02823">
        <ele>1738</ele>
        <time>2010-04-21T05:29:15Z</time>
      </trkpt>
      <trkpt lat="45.01446" lon="6.02821">
        <ele>1738</ele>
        <time>2010-04-21T05:29:18Z</time>
      </trkpt>
      <trkpt lat="45.01447" lon="6.02809">
        <ele>1738</ele>
        <time>2010-04-21T05:29:37Z</time>
      </trkpt>
      <trkpt lat="45.01448" lon="6.02804">
        <ele>1738</ele>
        <time>2010-04-21T05:29:52Z</time>
      </trkpt>
      <trkpt lat="45.0145" lon="6.02799">
        <ele>1738</ele>
        <time>2010-04-21T05:30:05Z</time>
      </trkpt>
      <trkpt lat="45.01452" lon="6.02795">
        <ele>1738</ele>
        <time>2010-04-21T05:30:23Z</time>
      </trkpt>
      <trkpt lat="45.01454" lon="6.02787">
        <ele>1740</ele>
        <time>2010-04-21T05:30:36Z</time>
      </trkpt>
      <trkpt lat="45.01454" lon="6.02785">
        <ele>1740</ele>
        <time>2010-04-21T05:30:55Z</time>
      </trkpt>
      <trkpt lat="45.01454" lon="6.02784">
        <ele>1740</ele>
        <time>2010-04-21T05:31:20Z</time>
      </trkpt>
      <trkpt lat="45.01452" lon="6.02784">
        <ele>1740</ele>
        <time>2010-04-21T05:32:46Z</time>
      </trkpt>
      <trkpt lat="45.01451" lon="6.02782">
        <ele>1740</ele>
        <time>2010-04-21T05:33:30Z</time>
      </trkpt>
      <trkpt lat="45.01449" lon="6.02781">
        <ele>1740</ele>
        <time>2010-04-21T05:34:15Z</time>
      </trkpt>
      <trkpt lat="45.01453" lon="6.02779">
        <ele>1740</ele>
        <time>2010-04-21T05:34:35Z</time>
      </trkpt>
      <trkpt lat="45.01457" lon="6.02777">
        <ele>1740</ele>
        <time>2010-04-21T05:34:49Z</time>
      </trkpt>
      <trkpt lat="45.01461" lon="6.02777">
        <ele>1710</ele>
        <time>2010-04-21T05:35:09Z</time>
      </trkpt>
      <trkpt lat="45.01465" lon="6.02778">
        <ele>1710</ele>
        <time>2010-04-21T05:35:27Z</time>
      </trkpt>
      <trkpt lat="45.01464" lon="6.02774">
        <ele>1710</ele>
        <time>2010-04-21T05:35:43Z</time>
      </trkpt>
      <trkpt lat="45.0147" lon="6.02771">
        <ele>1710</ele>
        <time>2010-04-21T05:36:00Z</time>
      </trkpt>
      <trkpt lat="45.01472" lon="6.0277">
        <ele>1710</ele>
        <time>2010-04-21T05:36:19Z</time>
      </trkpt>
      <trkpt lat="45.01475" lon="6.02771">
        <ele>1710</ele>
        <time>2010-04-21T05:36:40Z</time>
      </trkpt>
      <trkpt lat="45.01479" lon="6.02767">
        <ele>1710</ele>
        <time>2010-04-21T05:36:56Z</time>
      </trkpt>
      <trkpt lat="45.01479" lon="6.02765">
        <ele>1710</ele>
        <time>2010-04-21T05:37:20Z</time>
      </trkpt>
      <trkpt lat="45.01481" lon="6.02764">
        <ele>1710</ele>
        <time>2010-04-21T05:38:05Z</time>
      </trkpt>
      <trkpt lat="45.01481" lon="6.02765">
        <ele>1710</ele>
        <time>2010-04-21T05:38:06Z</time>
      </trkpt>
      <trkpt lat="45.01481" lon="6.02765">
        <ele>1710</ele>
        <time>2010-04-21T05:38:07Z</time>
      </trkpt>
      <trkpt lat="45.0148" lon="6.02767">
        <ele>1710</ele>
        <time>2010-04-21T05:38:44Z</time>
      </trkpt>
      <trkpt lat="45.01481" lon="6.02768">
        <ele>1710</ele>
        <time>2010-04-21T05:41:00Z</time>
      </trkpt>
      <trkpt lat="45.01481" lon="6.02767">
        <ele>1710</ele>
        <time>2010-04-21T05:41:28Z</time>
      </trkpt>
      <trkpt lat="45.01479" lon="6.02771">
        <ele>1710</ele>
        <time>2010-04-21T05:41:54Z</time>
      </trkpt>
      <trkpt lat="45.01478" lon="6.02767">
        <ele>1710</ele>
        <time>2010-04-21T05:42:21Z</time>
      </trkpt>
      <trkpt lat="45.01476" lon="6.02769">
        <ele>1710</ele>
        <time>2010-04-21T05:42:47Z</time>
      </trkpt>
      <trkpt lat="45.01474" lon="6.02751">
        <ele>1710</ele>
        <time>2010-04-21T05:43:05Z</time>
      </trkpt>
      <trkpt lat="45.01474" lon="6.02736">
        <ele>1710</ele>
        <time>2010-04-21T05:43:20Z</time>
      </trkpt>
      <trkpt lat="45.01472" lon="6.02718">
        <ele>1710</ele>
        <time>2010-04-21T05:43:38Z</time>
      </trkpt>
      <trkpt lat="45.01469" lon="6.02709">
        <ele>1710</ele>
        <time>2010-04-21T05:43:52Z</time>
      </trkpt>
      <trkpt lat="45.01467" lon="6.027">
        <ele>1736</ele>
        <time>2010-04-21T05:44:05Z</time>
      </trkpt>
      <trkpt lat="45.01466" lon="6.02691">
        <ele>1736</ele>
        <time>2010-04-21T05:44:18Z</time>
      </trkpt>
      <trkpt lat="45.01466" lon="6.02677">
        <ele>1736</ele>
        <time>2010-04-21T05:44:35Z</time>
      </trkpt>
      <trkpt lat="45.01467" lon="6.0267">
        <ele>1736</ele>
        <time>2010-04-21T05:44:50Z</time>
      </trkpt>
      <trkpt lat="45.01469" lon="6.02657">
        <ele>1736</ele>
        <time>2010-04-21T05:45:07Z</time>
      </trkpt>
      <trkpt lat="45.01469" lon="6.0265">
        <ele>1736</ele>
        <time>2010-04-21T05:45:17Z</time>
      </trkpt>
      <trkpt lat="45.01465" lon="6.02644">
        <ele>1736</ele>
        <time>2010-04-21T05:45:34Z</time>
      </trkpt>
      <trkpt lat="45.0146" lon="6.02639">
        <ele>1736</ele>
        <time>2010-04-21T05:45:52Z</time>
      </trkpt>
      <trkpt lat="45.01453" lon="6.02633">
        <ele>1760</ele>
        <time>2010-04-21T05:46:08Z</time>
      </trkpt>
      <trkpt lat="45.01447" lon="6.02627">
        <ele>1760</ele>
        <time>2010-04-21T05:46:23Z</time>
      </trkpt>
      <trkpt lat="45.01439" lon="6.02619">
        <ele>1775</ele>
        <time>2010-04-21T05:46:43Z</time>
      </trkpt>
      <trkpt lat="45.01434" lon="6.02615">
        <ele>1775</ele>
        <time>2010-04-21T05:46:58Z</time>
      </trkpt>
      <trkpt lat="45.01429" lon="6.02612">
        <ele>1775</ele>
        <time>2010-04-21T05:47:14Z</time>
      </trkpt>
      <trkpt lat="45.01425" lon="6.02614">
        <ele>1775</ele>
        <time>2010-04-21T05:47:26Z</time>
      </trkpt>
      <trkpt lat="45.01419" lon="6.02621">
        <ele>1775</ele>
        <time>2010-04-21T05:47:43Z</time>
      </trkpt>
      <trkpt lat="45.01414" lon="6.02628">
        <ele>1760</ele>
        <time>2010-04-21T05:47:59Z</time>
      </trkpt>
      <trkpt lat="45.01403" lon="6.02635">
        <ele>1760</ele>
        <time>2010-04-21T05:48:12Z</time>
      </trkpt>
      <trkpt lat="45.01397" lon="6.0264">
        <ele>1760</ele>
        <time>2010-04-21T05:48:25Z</time>
      </trkpt>
      <trkpt lat="45.01394" lon="6.02644">
        <ele>1760</ele>
        <time>2010-04-21T05:48:40Z</time>
      </trkpt>
      <trkpt lat="45.01387" lon="6.02648">
        <ele>1760</ele>
        <time>2010-04-21T05:49:13Z</time>
      </trkpt>
      <trkpt lat="45.01384" lon="6.02643">
        <ele>1760</ele>
        <time>2010-04-21T05:49:34Z</time>
      </trkpt>
      <trkpt lat="45.01396" lon="6.02626">
        <ele>1760</ele>
        <time>2010-04-21T05:49:45Z</time>
      </trkpt>
      <trkpt lat="45.014" lon="6.02614">
        <ele>1775</ele>
        <time>2010-04-21T05:49:56Z</time>
      </trkpt>
      <trkpt lat="45.01398" lon="6.02601">
        <ele>1775</ele>
        <time>2010-04-21T05:50:10Z</time>
      </trkpt>
      <trkpt lat="45.01395" lon="6.0259">
        <ele>1775</ele>
        <time>2010-04-21T05:50:27Z</time>
      </trkpt>
      <trkpt lat="45.01391" lon="6.02581">
        <ele>1775</ele>
        <time>2010-04-21T05:50:44Z</time>
      </trkpt>
      <trkpt lat="45.01387" lon="6.02577">
        <ele>1775</ele>
        <time>2010-04-21T05:50:56Z</time>
      </trkpt>
      <trkpt lat="45.01389" lon="6.02573">
        <ele>1775</ele>
        <time>2010-04-21T05:51:11Z</time>
      </trkpt>
      <trkpt lat="45.01391" lon="6.02563">
        <ele>1775</ele>
        <time>2010-04-21T05:51:50Z</time>
      </trkpt>
      <trkpt lat="45.01388" lon="6.02558">
        <ele>1775</ele>
        <time>2010-04-21T05:52:05Z</time>
      </trkpt>
      <trkpt lat="45.01385" lon="6.02551">
        <ele>1775</ele>
        <time>2010-04-21T05:52:45Z</time>
      </trkpt>
      <trkpt lat="45.01387" lon="6.02546">
        <ele>1775</ele>
        <time>2010-04-21T05:53:03Z</time>
      </trkpt>
      <trkpt lat="45.01385" lon="6.02542">
        <ele>1798</ele>
        <time>2010-04-21T05:53:16Z</time>
      </trkpt>
      <trkpt lat="45.01384" lon="6.02535">
        <ele>1798</ele>
        <time>2010-04-21T05:53:26Z</time>
      </trkpt>
      <trkpt lat="45.01382" lon="6.0253">
        <ele>1798</ele>
        <time>2010-04-21T05:53:36Z</time>
      </trkpt>
      <trkpt lat="45.0139" lon="6.0252">
        <ele>1798</ele>
        <time>2010-04-21T05:53:53Z</time>
      </trkpt>
      <trkpt lat="45.01392" lon="6.02515">
        <ele>1798</ele>
        <time>2010-04-21T05:54:12Z</time>
      </trkpt>
      <trkpt lat="45.0139" lon="6.02509">
        <ele>1798</ele>
        <time>2010-04-21T05:54:22Z</time>
      </trkpt>
      <trkpt lat="45.01389" lon="6.02503">
        <ele>1798</ele>
        <time>2010-04-21T05:54:40Z</time>
      </trkpt>
      <trkpt lat="45.01382" lon="6.02498">
        <ele>1798</ele>
        <time>2010-04-21T05:55:33Z</time>
      </trkpt>
      <trkpt lat="45.01371" lon="6.0249">
        <ele>1846</ele>
        <time>2010-04-21T05:55:53Z</time>
      </trkpt>
      <trkpt lat="45.0136" lon="6.02479">
        <ele>1846</ele>
        <time>2010-04-21T05:56:16Z</time>
      </trkpt>
      <trkpt lat="45.01353" lon="6.02469">
        <ele>1846</ele>
        <time>2010-04-21T05:56:31Z</time>
      </trkpt>
      <trkpt lat="45.01347" lon="6.02461">
        <ele>1846</ele>
        <time>2010-04-21T05:56:51Z</time>
      </trkpt>
      <trkpt lat="45.01346" lon="6.0245">
        <ele>1852</ele>
        <time>2010-04-21T05:57:06Z</time>
      </trkpt>
      <trkpt lat="45.01343" lon="6.02454">
        <ele>1852</ele>
        <time>2010-04-21T05:57:32Z</time>
      </trkpt>
      <trkpt lat="45.01343" lon="6.02455">
        <ele>1852</ele>
        <time>2010-04-21T05:57:34Z</time>
      </trkpt>
      <trkpt lat="45.0134" lon="6.02467">
        <ele>1846</ele>
        <time>2010-04-21T05:57:51Z</time>
      </trkpt>
      <trkpt lat="45.01339" lon="6.02467">
        <ele>1846</ele>
        <time>2010-04-21T05:58:14Z</time>
      </trkpt>
      <trkpt lat="45.01334" lon="6.02456">
        <ele>1852</ele>
        <time>2010-04-21T05:58:32Z</time>
      </trkpt>
      <trkpt lat="45.01334" lon="6.02443">
        <ele>1852</ele>
        <time>2010-04-21T05:58:46Z</time>
      </trkpt>
      <trkpt lat="45.01336" lon="6.02435">
        <ele>1852</ele>
        <time>2010-04-21T05:59:02Z</time>
      </trkpt>
      <trkpt lat="45.01337" lon="6.0243">
        <ele>1852</ele>
        <time>2010-04-21T05:59:17Z</time>
      </trkpt>
      <trkpt lat="45.01331" lon="6.02435">
        <ele>1852</ele>
        <time>2010-04-21T05:59:32Z</time>
      </trkpt>
      <trkpt lat="45.01325" lon="6.02441">
        <ele>1852</ele>
        <time>2010-04-21T05:59:43Z</time>
      </trkpt>
      <trkpt lat="45.01324" lon="6.02442">
        <ele>1852</ele>
        <time>2010-04-21T05:59:45Z</time>
      </trkpt>
      <trkpt lat="45.01321" lon="6.02448">
        <ele>1852</ele>
        <time>2010-04-21T05:59:54Z</time>
      </trkpt>
      <trkpt lat="45.01319" lon="6.02447">
        <ele>1852</ele>
        <time>2010-04-21T06:00:06Z</time>
      </trkpt>
      <trkpt lat="45.0131" lon="6.02435">
        <ele>1852</ele>
        <time>2010-04-21T06:00:26Z</time>
      </trkpt>
      <trkpt lat="45.01304" lon="6.02434">
        <ele>1852</ele>
        <time>2010-04-21T06:00:38Z</time>
      </trkpt>
      <trkpt lat="45.01295" lon="6.02439">
        <ele>1852</ele>
        <time>2010-04-21T06:00:53Z</time>
      </trkpt>
      <trkpt lat="45.01289" lon="6.02445">
        <ele>1889</ele>
        <time>2010-04-21T06:01:05Z</time>
      </trkpt>
      <trkpt lat="45.01281" lon="6.02444">
        <ele>1889</ele>
        <time>2010-04-21T06:01:20Z</time>
      </trkpt>
      <trkpt lat="45.01274" lon="6.02441">
        <ele>1889</ele>
        <time>2010-04-21T06:01:32Z</time>
      </trkpt>
      <trkpt lat="45.01272" lon="6.02438">
        <ele>1889</ele>
        <time>2010-04-21T06:01:38Z</time>
      </trkpt>
      <trkpt lat="45.0127" lon="6.02444">
        <ele>1889</ele>
        <time>2010-04-21T06:01:50Z</time>
      </trkpt>
      <trkpt lat="45.01271" lon="6.02453">
        <ele>1889</ele>
        <time>2010-04-21T06:02:05Z</time>
      </trkpt>
      <trkpt lat="45.01274" lon="6.02466">
        <ele>1891</ele>
        <time>2010-04-21T06:02:28Z</time>
      </trkpt>
      <trkpt lat="45.01272" lon="6.02482">
        <ele>1891</ele>
        <time>2010-04-21T06:02:48Z</time>
      </trkpt>
      <trkpt lat="45.01269" lon="6.02493">
        <ele>1891</ele>
        <time>2010-04-21T06:03:01Z</time>
      </trkpt>
      <trkpt lat="45.01267" lon="6.02498">
        <ele>1891</ele>
        <time>2010-04-21T06:03:17Z</time>
      </trkpt>
      <trkpt lat="45.01259" lon="6.02482">
        <ele>1891</ele>
        <time>2010-04-21T06:03:37Z</time>
      </trkpt>
      <trkpt lat="45.01254" lon="6.02471">
        <ele>1891</ele>
        <time>2010-04-21T06:03:49Z</time>
      </trkpt>
      <trkpt lat="45.0125" lon="6.02463">
        <ele>1891</ele>
        <time>2010-04-21T06:04:02Z</time>
      </trkpt>
      <trkpt lat="45.01245" lon="6.02451">
        <ele>1889</ele>
        <time>2010-04-21T06:04:18Z</time>
      </trkpt>
      <trkpt lat="45.01239" lon="6.0244">
        <ele>1889</ele>
        <time>2010-04-21T06:04:36Z</time>
      </trkpt>
      <trkpt lat="45.01236" lon="6.02433">
        <ele>1889</ele>
        <time>2010-04-21T06:04:47Z</time>
      </trkpt>
      <trkpt lat="45.01229" lon="6.02435">
        <ele>1889</ele>
        <time>2010-04-21T06:05:23Z</time>
      </trkpt>
      <trkpt lat="45.01234" lon="6.02426">
        <ele>1889</ele>
        <time>2010-04-21T06:06:09Z</time>
      </trkpt>
      <trkpt lat="45.0123" lon="6.02433">
        <ele>1889</ele>
        <time>2010-04-21T06:06:23Z</time>
      </trkpt>
      <trkpt lat="45.01226" lon="6.02444">
        <ele>1889</ele>
        <time>2010-04-21T06:06:39Z</time>
      </trkpt>
      <trkpt lat="45.01225" lon="6.02447">
        <ele>1889</ele>
        <time>2010-04-21T06:07:00Z</time>
      </trkpt>
      <trkpt lat="45.01219" lon="6.02437">
        <ele>1889</ele>
        <time>2010-04-21T06:07:25Z</time>
      </trkpt>
      <trkpt lat="45.01215" lon="6.02429">
        <ele>1889</ele>
        <time>2010-04-21T06:07:41Z</time>
      </trkpt>
      <trkpt lat="45.01213" lon="6.02426">
        <ele>1889</ele>
        <time>2010-04-21T06:07:50Z</time>
      </trkpt>
      <trkpt lat="45.01211" lon="6.02418">
        <ele>1889</ele>
        <time>2010-04-21T06:08:05Z</time>
      </trkpt>
      <trkpt lat="45.01208" lon="6.02426">
        <ele>1949</ele>
        <time>2010-04-21T06:08:28Z</time>
      </trkpt>
      <trkpt lat="45.01206" lon="6.02437">
        <ele>1949</ele>
        <time>2010-04-21T06:08:45Z</time>
      </trkpt>
      <trkpt lat="45.01203" lon="6.02427">
        <ele>1949</ele>
        <time>2010-04-21T06:09:00Z</time>
      </trkpt>
      <trkpt lat="45.01201" lon="6.02419">
        <ele>1949</ele>
        <time>2010-04-21T06:09:12Z</time>
      </trkpt>
      <trkpt lat="45.01197" lon="6.0241">
        <ele>1949</ele>
        <time>2010-04-21T06:09:30Z</time>
      </trkpt>
      <trkpt lat="45.01196" lon="6.02399">
        <ele>1949</ele>
        <time>2010-04-21T06:09:46Z</time>
      </trkpt>
      <trkpt lat="45.01193" lon="6.02402">
        <ele>1949</ele>
        <time>2010-04-21T06:09:53Z</time>
      </trkpt>
      <trkpt lat="45.01185" lon="6.0241">
        <ele>1949</ele>
        <time>2010-04-21T06:10:05Z</time>
      </trkpt>
      <trkpt lat="45.01182" lon="6.0242">
        <ele>1949</ele>
        <time>2010-04-21T06:10:19Z</time>
      </trkpt>
      <trkpt lat="45.01182" lon="6.0243">
        <ele>1949</ele>
        <time>2010-04-21T06:10:34Z</time>
      </trkpt>
      <trkpt lat="45.0118" lon="6.02426">
        <ele>1949</ele>
        <time>2010-04-21T06:10:56Z</time>
      </trkpt>
      <trkpt lat="45.01174" lon="6.02415">
        <ele>1949</ele>
        <time>2010-04-21T06:11:13Z</time>
      </trkpt>
      <trkpt lat="45.01169" lon="6.02407">
        <ele>1949</ele>
        <time>2010-04-21T06:11:25Z</time>
      </trkpt>
      <trkpt lat="45.01167" lon="6.02399">
        <ele>1949</ele>
        <time>2010-04-21T06:11:39Z</time>
      </trkpt>
      <trkpt lat="45.01166" lon="6.02391">
        <ele>1949</ele>
        <time>2010-04-21T06:11:54Z</time>
      </trkpt>
      <trkpt lat="45.01163" lon="6.02393">
        <ele>1949</ele>
        <time>2010-04-21T06:12:13Z</time>
      </trkpt>
      <trkpt lat="45.01159" lon="6.02402">
        <ele>1949</ele>
        <time>2010-04-21T06:12:26Z</time>
      </trkpt>
      <trkpt lat="45.01157" lon="6.02409">
        <ele>1949</ele>
        <time>2010-04-21T06:12:42Z</time>
      </trkpt>
      <trkpt lat="45.01156" lon="6.02405">
        <ele>1949</ele>
        <time>2010-04-21T06:12:59Z</time>
      </trkpt>
      <trkpt lat="45.01153" lon="6.02399">
        <ele>1949</ele>
        <time>2010-04-21T06:13:09Z</time>
      </trkpt>
      <trkpt lat="45.0115" lon="6.02391">
        <ele>1949</ele>
        <time>2010-04-21T06:13:20Z</time>
      </trkpt>
      <trkpt lat="45.01149" lon="6.02389">
        <ele>1949</ele>
        <time>2010-04-21T06:13:22Z</time>
      </trkpt>
      <trkpt lat="45.01147" lon="6.02384">
        <ele>1949</ele>
        <time>2010-04-21T06:13:30Z</time>
      </trkpt>
      <trkpt lat="45.01143" lon="6.02379">
        <ele>1949</ele>
        <time>2010-04-21T06:13:44Z</time>
      </trkpt>
      <trkpt lat="45.01139" lon="6.02372">
        <ele>1962</ele>
        <time>2010-04-21T06:13:56Z</time>
      </trkpt>
      <trkpt lat="45.01135" lon="6.02378">
        <ele>1949</ele>
        <time>2010-04-21T06:14:12Z</time>
      </trkpt>
      <trkpt lat="45.01133" lon="6.02392">
        <ele>1949</ele>
        <time>2010-04-21T06:14:29Z</time>
      </trkpt>
      <trkpt lat="45.01134" lon="6.02405">
        <ele>1949</ele>
        <time>2010-04-21T06:14:46Z</time>
      </trkpt>
      <trkpt lat="45.01134" lon="6.02408">
        <ele>1949</ele>
        <time>2010-04-21T06:14:54Z</time>
      </trkpt>
      <trkpt lat="45.01135" lon="6.02415">
        <ele>1949</ele>
        <time>2010-04-21T06:15:07Z</time>
      </trkpt>
      <trkpt lat="45.01135" lon="6.02428">
        <ele>1949</ele>
        <time>2010-04-21T06:15:26Z</time>
      </trkpt>
      <trkpt lat="45.01134" lon="6.02436">
        <ele>1949</ele>
        <time>2010-04-21T06:15:42Z</time>
      </trkpt>
      <trkpt lat="45.01126" lon="6.02451">
        <ele>1949</ele>
        <time>2010-04-21T06:15:59Z</time>
      </trkpt>
      <trkpt lat="45.01122" lon="6.02459">
        <ele>2006</ele>
        <time>2010-04-21T06:16:21Z</time>
      </trkpt>
      <trkpt lat="45.01117" lon="6.02475">
        <ele>2006</ele>
        <time>2010-04-21T06:16:39Z</time>
      </trkpt>
      <trkpt lat="45.01115" lon="6.02486">
        <ele>2006</ele>
        <time>2010-04-21T06:16:51Z</time>
      </trkpt>
      <trkpt lat="45.01115" lon="6.02497">
        <ele>2006</ele>
        <time>2010-04-21T06:17:07Z</time>
      </trkpt>
      <trkpt lat="45.01115" lon="6.0251">
        <ele>2006</ele>
        <time>2010-04-21T06:17:36Z</time>
      </trkpt>
      <trkpt lat="45.01113" lon="6.02519">
        <ele>2006</ele>
        <time>2010-04-21T06:17:51Z</time>
      </trkpt>
      <trkpt lat="45.01108" lon="6.02515">
        <ele>2006</ele>
        <time>2010-04-21T06:18:06Z</time>
      </trkpt>
      <trkpt lat="45.01102" lon="6.02506">
        <ele>2006</ele>
        <time>2010-04-21T06:18:20Z</time>
      </trkpt>
      <trkpt lat="45.01096" lon="6.02496">
        <ele>2006</ele>
        <time>2010-04-21T06:18:38Z</time>
      </trkpt>
      <trkpt lat="45.01094" lon="6.02492">
        <ele>2006</ele>
        <time>2010-04-21T06:18:50Z</time>
      </trkpt>
      <trkpt lat="45.0109" lon="6.02485">
        <ele>2006</ele>
        <time>2010-04-21T06:19:10Z</time>
      </trkpt>
      <trkpt lat="45.01088" lon="6.02478">
        <ele>2006</ele>
        <time>2010-04-21T06:19:22Z</time>
      </trkpt>
      <trkpt lat="45.01086" lon="6.02472">
        <ele>2006</ele>
        <time>2010-04-21T06:19:45Z</time>
      </trkpt>
      <trkpt lat="45.01085" lon="6.02464">
        <ele>2006</ele>
        <time>2010-04-21T06:19:59Z</time>
      </trkpt>
      <trkpt lat="45.01084" lon="6.02465">
        <ele>2006</ele>
        <time>2010-04-21T06:20:29Z</time>
      </trkpt>
      <trkpt lat="45.01082" lon="6.02466">
        <ele>2006</ele>
        <time>2010-04-21T06:20:58Z</time>
      </trkpt>
      <trkpt lat="45.0108" lon="6.02474">
        <ele>2006</ele>
        <time>2010-04-21T06:21:15Z</time>
      </trkpt>
      <trkpt lat="45.01078" lon="6.02481">
        <ele>2006</ele>
        <time>2010-04-21T06:21:41Z</time>
      </trkpt>
      <trkpt lat="45.01078" lon="6.0249">
        <ele>2006</ele>
        <time>2010-04-21T06:21:50Z</time>
      </trkpt>
      <trkpt lat="45.01076" lon="6.02498">
        <ele>2006</ele>
        <time>2010-04-21T06:22:05Z</time>
      </trkpt>
      <trkpt lat="45.01079" lon="6.02506">
        <ele>2006</ele>
        <time>2010-04-21T06:22:14Z</time>
      </trkpt>
      <trkpt lat="45.01078" lon="6.02511">
        <ele>2006</ele>
        <time>2010-04-21T06:22:28Z</time>
      </trkpt>
      <trkpt lat="45.01076" lon="6.0252">
        <ele>2006</ele>
        <time>2010-04-21T06:22:42Z</time>
      </trkpt>
      <trkpt lat="45.01081" lon="6.02521">
        <ele>2006</ele>
        <time>2010-04-21T06:23:03Z</time>
      </trkpt>
      <trkpt lat="45.01081" lon="6.02524">
        <ele>2006</ele>
        <time>2010-04-21T06:23:18Z</time>
      </trkpt>
      <trkpt lat="45.01074" lon="6.02522">
        <ele>2006</ele>
        <time>2010-04-21T06:23:35Z</time>
      </trkpt>
      <trkpt lat="45.01069" lon="6.02518">
        <ele>2006</ele>
        <time>2010-04-21T06:23:53Z</time>
      </trkpt>
      <trkpt lat="45.01065" lon="6.02512">
        <ele>2006</ele>
        <time>2010-04-21T06:24:04Z</time>
      </trkpt>
      <trkpt lat="45.01069" lon="6.0251">
        <ele>2006</ele>
        <time>2010-04-21T06:24:22Z</time>
      </trkpt>
      <trkpt lat="45.01067" lon="6.02505">
        <ele>2006</ele>
        <time>2010-04-21T06:24:45Z</time>
      </trkpt>
      <trkpt lat="45.01062" lon="6.02498">
        <ele>2006</ele>
        <time>2010-04-21T06:24:57Z</time>
      </trkpt>
      <trkpt lat="45.01061" lon="6.02494">
        <ele>2006</ele>
        <time>2010-04-21T06:25:16Z</time>
      </trkpt>
      <trkpt lat="45.0106" lon="6.02495">
        <ele>2006</ele>
        <time>2010-04-21T06:25:42Z</time>
      </trkpt>
      <trkpt lat="45.01059" lon="6.02491">
        <ele>2006</ele>
        <time>2010-04-21T06:26:02Z</time>
      </trkpt>
      <trkpt lat="45.01054" lon="6.02481">
        <ele>2006</ele>
        <time>2010-04-21T06:26:16Z</time>
      </trkpt>
      <trkpt lat="45.01052" lon="6.02464">
        <ele>2006</ele>
        <time>2010-04-21T06:26:34Z</time>
      </trkpt>
      <trkpt lat="45.0105" lon="6.02464">
        <ele>2006</ele>
        <time>2010-04-21T06:26:36Z</time>
      </trkpt>
      <trkpt lat="45.01049" lon="6.02461">
        <ele>2006</ele>
        <time>2010-04-21T06:26:40Z</time>
      </trkpt>
      <trkpt lat="45.01043" lon="6.02452">
        <ele>2003</ele>
        <time>2010-04-21T06:26:54Z</time>
      </trkpt>
      <trkpt lat="45.01037" lon="6.02441">
        <ele>2069</ele>
        <time>2010-04-21T06:27:11Z</time>
      </trkpt>
      <trkpt lat="45.01037" lon="6.02443">
        <ele>2069</ele>
        <time>2010-04-21T06:27:42Z</time>
      </trkpt>
      <trkpt lat="45.01041" lon="6.02442">
        <ele>2069</ele>
        <time>2010-04-21T06:28:21Z</time>
      </trkpt>
      <trkpt lat="45.01033" lon="6.02448">
        <ele>2069</ele>
        <time>2010-04-21T06:28:40Z</time>
      </trkpt>
      <trkpt lat="45.01025" lon="6.02464">
        <ele>2067</ele>
        <time>2010-04-21T06:28:58Z</time>
      </trkpt>
      <trkpt lat="45.01026" lon="6.02475">
        <ele>2067</ele>
        <time>2010-04-21T06:29:16Z</time>
      </trkpt>
      <trkpt lat="45.01025" lon="6.02485">
        <ele>2067</ele>
        <time>2010-04-21T06:29:30Z</time>
      </trkpt>
      <trkpt lat="45.0102" lon="6.02492">
        <ele>2067</ele>
        <time>2010-04-21T06:29:47Z</time>
      </trkpt>
      <trkpt lat="45.0102" lon="6.02493">
        <ele>2067</ele>
        <time>2010-04-21T06:29:49Z</time>
      </trkpt>
      <trkpt lat="45.0102" lon="6.02501">
        <ele>2067</ele>
        <time>2010-04-21T06:30:10Z</time>
      </trkpt>
      <trkpt lat="45.01019" lon="6.0251">
        <ele>2067</ele>
        <time>2010-04-21T06:30:22Z</time>
      </trkpt>
      <trkpt lat="45.01018" lon="6.02517">
        <ele>2067</ele>
        <time>2010-04-21T06:30:37Z</time>
      </trkpt>
      <trkpt lat="45.01019" lon="6.02522">
        <ele>2067</ele>
        <time>2010-04-21T06:31:09Z</time>
      </trkpt>
      <trkpt lat="45.01022" lon="6.02522">
        <ele>2067</ele>
        <time>2010-04-21T06:31:31Z</time>
      </trkpt>
      <trkpt lat="45.01016" lon="6.0252">
        <ele>2067</ele>
        <time>2010-04-21T06:31:54Z</time>
      </trkpt>
      <trkpt lat="45.01014" lon="6.02517">
        <ele>2067</ele>
        <time>2010-04-21T06:32:10Z</time>
      </trkpt>
      <trkpt lat="45.01011" lon="6.0251">
        <ele>2067</ele>
        <time>2010-04-21T06:32:24Z</time>
      </trkpt>
      <trkpt lat="45.01003" lon="6.02504">
        <ele>2067</ele>
        <time>2010-04-21T06:32:39Z</time>
      </trkpt>
      <trkpt lat="45.01" lon="6.02501">
        <ele>2067</ele>
        <time>2010-04-21T06:32:55Z</time>
      </trkpt>
      <trkpt lat="45.00998" lon="6.02498">
        <ele>2067</ele>
        <time>2010-04-21T06:33:05Z</time>
      </trkpt>
      <trkpt lat="45.00997" lon="6.02495">
        <ele>2067</ele>
        <time>2010-04-21T06:33:19Z</time>
      </trkpt>
      <trkpt lat="45.00992" lon="6.02486">
        <ele>2067</ele>
        <time>2010-04-21T06:33:33Z</time>
      </trkpt>
      <trkpt lat="45.00989" lon="6.02472">
        <ele>2067</ele>
        <time>2010-04-21T06:33:49Z</time>
      </trkpt>
      <trkpt lat="45.00988" lon="6.02466">
        <ele>2067</ele>
        <time>2010-04-21T06:33:57Z</time>
      </trkpt>
      <trkpt lat="45.00987" lon="6.02457">
        <ele>2069</ele>
        <time>2010-04-21T06:34:08Z</time>
      </trkpt>
      <trkpt lat="45.00987" lon="6.02453">
        <ele>2069</ele>
        <time>2010-04-21T06:34:23Z</time>
      </trkpt>
      <trkpt lat="45.00982" lon="6.02458">
        <ele>2067</ele>
        <time>2010-04-21T06:34:40Z</time>
      </trkpt>
      <trkpt lat="45.0098" lon="6.0246">
        <ele>2067</ele>
        <time>2010-04-21T06:34:43Z</time>
      </trkpt>
      <trkpt lat="45.00979" lon="6.02463">
        <ele>2067</ele>
        <time>2010-04-21T06:35:00Z</time>
      </trkpt>
      <trkpt lat="45.00974" lon="6.02472">
        <ele>2067</ele>
        <time>2010-04-21T06:35:16Z</time>
      </trkpt>
      <trkpt lat="45.00969" lon="6.02471">
        <ele>2067</ele>
        <time>2010-04-21T06:35:36Z</time>
      </trkpt>
      <trkpt lat="45.00965" lon="6.02459">
        <ele>2067</ele>
        <time>2010-04-21T06:35:53Z</time>
      </trkpt>
      <trkpt lat="45.0096" lon="6.0245">
        <ele>2069</ele>
        <time>2010-04-21T06:36:09Z</time>
      </trkpt>
      <trkpt lat="45.00958" lon="6.02443">
        <ele>2146</ele>
        <time>2010-04-21T06:36:29Z</time>
      </trkpt>
      <trkpt lat="45.00958" lon="6.02435">
        <ele>2146</ele>
        <time>2010-04-21T06:36:44Z</time>
      </trkpt>
      <trkpt lat="45.00958" lon="6.02427">
        <ele>2146</ele>
        <time>2010-04-21T06:37:01Z</time>
      </trkpt>
      <trkpt lat="45.00955" lon="6.0242">
        <ele>2146</ele>
        <time>2010-04-21T06:37:11Z</time>
      </trkpt>
      <trkpt lat="45.00953" lon="6.02417">
        <ele>2146</ele>
        <time>2010-04-21T06:37:17Z</time>
      </trkpt>
      <trkpt lat="45.0095" lon="6.02406">
        <ele>2146</ele>
        <time>2010-04-21T06:37:33Z</time>
      </trkpt>
      <trkpt lat="45.00946" lon="6.02399">
        <ele>2146</ele>
        <time>2010-04-21T06:37:45Z</time>
      </trkpt>
      <trkpt lat="45.00942" lon="6.024">
        <ele>2146</ele>
        <time>2010-04-21T06:37:58Z</time>
      </trkpt>
      <trkpt lat="45.0094" lon="6.02405">
        <ele>2146</ele>
        <time>2010-04-21T06:38:15Z</time>
      </trkpt>
      <trkpt lat="45.00937" lon="6.0241">
        <ele>2146</ele>
        <time>2010-04-21T06:38:28Z</time>
      </trkpt>
      <trkpt lat="45.00934" lon="6.02413">
        <ele>2146</ele>
        <time>2010-04-21T06:38:34Z</time>
      </trkpt>
      <trkpt lat="45.00932" lon="6.02422">
        <ele>2146</ele>
        <time>2010-04-21T06:38:48Z</time>
      </trkpt>
      <trkpt lat="45.00929" lon="6.02426">
        <ele>2146</ele>
        <time>2010-04-21T06:39:08Z</time>
      </trkpt>
      <trkpt lat="45.00927" lon="6.02437">
        <ele>2146</ele>
        <time>2010-04-21T06:39:23Z</time>
      </trkpt>
      <trkpt lat="45.00926" lon="6.02443">
        <ele>2146</ele>
        <time>2010-04-21T06:39:45Z</time>
      </trkpt>
      <trkpt lat="45.00919" lon="6.02434">
        <ele>2146</ele>
        <time>2010-04-21T06:40:02Z</time>
      </trkpt>
      <trkpt lat="45.00918" lon="6.0242">
        <ele>2146</ele>
        <time>2010-04-21T06:40:19Z</time>
      </trkpt>
      <trkpt lat="45.00919" lon="6.0241">
        <ele>2146</ele>
        <time>2010-04-21T06:40:34Z</time>
      </trkpt>
      <trkpt lat="45.00917" lon="6.024">
        <ele>2146</ele>
        <time>2010-04-21T06:40:48Z</time>
      </trkpt>
      <trkpt lat="45.00914" lon="6.02404">
        <ele>2146</ele>
        <time>2010-04-21T06:41:07Z</time>
      </trkpt>
      <trkpt lat="45.00912" lon="6.02412">
        <ele>2146</ele>
        <time>2010-04-21T06:41:20Z</time>
      </trkpt>
      <trkpt lat="45.00911" lon="6.02415">
        <ele>2146</ele>
        <time>2010-04-21T06:41:31Z</time>
      </trkpt>
      <trkpt lat="45.00909" lon="6.02413">
        <ele>2146</ele>
        <time>2010-04-21T06:41:57Z</time>
      </trkpt>
      <trkpt lat="45.00903" lon="6.02407">
        <ele>2146</ele>
        <time>2010-04-21T06:42:12Z</time>
      </trkpt>
      <trkpt lat="45.00908" lon="6.02398">
        <ele>2146</ele>
        <time>2010-04-21T06:42:25Z</time>
      </trkpt>
      <trkpt lat="45.00905" lon="6.02395">
        <ele>2146</ele>
        <time>2010-04-21T06:42:38Z</time>
      </trkpt>
      <trkpt lat="45.00902" lon="6.02403">
        <ele>2146</ele>
        <time>2010-04-21T06:42:55Z</time>
      </trkpt>
      <trkpt lat="45.009" lon="6.02408">
        <ele>2146</ele>
        <time>2010-04-21T06:43:20Z</time>
      </trkpt>
      <trkpt lat="45.00898" lon="6.02413">
        <ele>2146</ele>
        <time>2010-04-21T06:43:35Z</time>
      </trkpt>
      <trkpt lat="45.00897" lon="6.02412">
        <ele>2146</ele>
        <time>2010-04-21T06:43:54Z</time>
      </trkpt>
      <trkpt lat="45.00896" lon="6.02409">
        <ele>2146</ele>
        <time>2010-04-21T06:44:02Z</time>
      </trkpt>
      <trkpt lat="45.00895" lon="6.02408">
        <ele>2146</ele>
        <time>2010-04-21T06:44:18Z</time>
      </trkpt>
      <trkpt lat="45.00892" lon="6.024">
        <ele>2146</ele>
        <time>2010-04-21T06:44:37Z</time>
      </trkpt>
      <trkpt lat="45.00892" lon="6.02405">
        <ele>2146</ele>
        <time>2010-04-21T06:45:00Z</time>
      </trkpt>
      <trkpt lat="45.00893" lon="6.02408">
        <ele>2146</ele>
        <time>2010-04-21T06:45:17Z</time>
      </trkpt>
      <trkpt lat="45.0089" lon="6.02408">
        <ele>2146</ele>
        <time>2010-04-21T06:45:37Z</time>
      </trkpt>
      <trkpt lat="45.00887" lon="6.02398">
        <ele>2146</ele>
        <time>2010-04-21T06:46:06Z</time>
      </trkpt>
      <trkpt lat="45.0089" lon="6.02389">
        <ele>2146</ele>
        <time>2010-04-21T06:46:21Z</time>
      </trkpt>
      <trkpt lat="45.00891" lon="6.02385">
        <ele>2146</ele>
        <time>2010-04-21T06:46:43Z</time>
      </trkpt>
      <trkpt lat="45.00884" lon="6.02389">
        <ele>2146</ele>
        <time>2010-04-21T06:46:59Z</time>
      </trkpt>
      <trkpt lat="45.00885" lon="6.02386">
        <ele>2146</ele>
        <time>2010-04-21T06:47:16Z</time>
      </trkpt>
      <trkpt lat="45.00887" lon="6.02373">
        <ele>2134</ele>
        <time>2010-04-21T06:47:36Z</time>
      </trkpt>
      <trkpt lat="45.00888" lon="6.0237">
        <ele>2134</ele>
        <time>2010-04-21T06:47:49Z</time>
      </trkpt>
      <trkpt lat="45.00891" lon="6.02368">
        <ele>2134</ele>
        <time>2010-04-21T06:48:05Z</time>
      </trkpt>
      <trkpt lat="45.00892" lon="6.0236">
        <ele>2134</ele>
        <time>2010-04-21T06:48:17Z</time>
      </trkpt>
      <trkpt lat="45.00891" lon="6.02353">
        <ele>2134</ele>
        <time>2010-04-21T06:48:35Z</time>
      </trkpt>
      <trkpt lat="45.00889" lon="6.02351">
        <ele>2134</ele>
        <time>2010-04-21T06:48:53Z</time>
      </trkpt>
      <trkpt lat="45.00891" lon="6.02355">
        <ele>2134</ele>
        <time>2010-04-21T06:49:20Z</time>
      </trkpt>
      <trkpt lat="45.00892" lon="6.02356">
        <ele>2134</ele>
        <time>2010-04-21T06:49:35Z</time>
      </trkpt>
      <trkpt lat="45.00883" lon="6.0235">
        <ele>2134</ele>
        <time>2010-04-21T06:49:56Z</time>
      </trkpt>
      <trkpt lat="45.00875" lon="6.02351">
        <ele>2134</ele>
        <time>2010-04-21T06:50:09Z</time>
      </trkpt>
      <trkpt lat="45.00867" lon="6.02355">
        <ele>2172</ele>
        <time>2010-04-21T06:50:22Z</time>
      </trkpt>
      <trkpt lat="45.00859" lon="6.0236">
        <ele>2172</ele>
        <time>2010-04-21T06:50:36Z</time>
      </trkpt>
      <trkpt lat="45.00857" lon="6.02359">
        <ele>2172</ele>
        <time>2010-04-21T06:50:39Z</time>
      </trkpt>
      <trkpt lat="45.00852" lon="6.02359">
        <ele>2172</ele>
        <time>2010-04-21T06:50:48Z</time>
      </trkpt>
      <trkpt lat="45.00846" lon="6.02357">
        <ele>2172</ele>
        <time>2010-04-21T06:51:04Z</time>
      </trkpt>
      <trkpt lat="45.00841" lon="6.02354">
        <ele>2172</ele>
        <time>2010-04-21T06:51:20Z</time>
      </trkpt>
      <trkpt lat="45.00834" lon="6.02351">
        <ele>2172</ele>
        <time>2010-04-21T06:51:35Z</time>
      </trkpt>
      <trkpt lat="45.00826" lon="6.02351">
        <ele>2172</ele>
        <time>2010-04-21T06:51:52Z</time>
      </trkpt>
      <trkpt lat="45.00822" lon="6.02345">
        <ele>2172</ele>
        <time>2010-04-21T06:52:01Z</time>
      </trkpt>
      <trkpt lat="45.00812" lon="6.02342">
        <ele>2172</ele>
        <time>2010-04-21T06:52:19Z</time>
      </trkpt>
      <trkpt lat="45.00804" lon="6.02338">
        <ele>2172</ele>
        <time>2010-04-21T06:52:34Z</time>
      </trkpt>
      <trkpt lat="45.00795" lon="6.02334">
        <ele>2172</ele>
        <time>2010-04-21T06:52:51Z</time>
      </trkpt>
      <trkpt lat="45.00793" lon="6.02335">
        <ele>2172</ele>
        <time>2010-04-21T06:53:04Z</time>
      </trkpt>
      <trkpt lat="45.00794" lon="6.02338">
        <ele>2172</ele>
        <time>2010-04-21T06:53:14Z</time>
      </trkpt>
      <trkpt lat="45.00795" lon="6.02344">
        <ele>2172</ele>
        <time>2010-04-21T06:53:21Z</time>
      </trkpt>
      <trkpt lat="45.00794" lon="6.02358">
        <ele>2172</ele>
        <time>2010-04-21T06:53:40Z</time>
      </trkpt>
      <trkpt lat="45.00787" lon="6.02358">
        <ele>2208</ele>
        <time>2010-04-21T06:53:56Z</time>
      </trkpt>
      <trkpt lat="45.00785" lon="6.02357">
        <ele>2208</ele>
        <time>2010-04-21T06:54:17Z</time>
      </trkpt>
      <trkpt lat="45.00778" lon="6.02354">
        <ele>2208</ele>
        <time>2010-04-21T06:54:32Z</time>
      </trkpt>
      <trkpt lat="45.00771" lon="6.02354">
        <ele>2208</ele>
        <time>2010-04-21T06:54:47Z</time>
      </trkpt>
      <trkpt lat="45.00765" lon="6.02352">
        <ele>2208</ele>
        <time>2010-04-21T06:54:59Z</time>
      </trkpt>
      <trkpt lat="45.00755" lon="6.02348">
        <ele>2208</ele>
        <time>2010-04-21T06:55:18Z</time>
      </trkpt>
      <trkpt lat="45.00745" lon="6.02348">
        <ele>2208</ele>
        <time>2010-04-21T06:55:35Z</time>
      </trkpt>
      <trkpt lat="45.00729" lon="6.02348">
        <ele>2208</ele>
        <time>2010-04-21T06:55:58Z</time>
      </trkpt>
      <trkpt lat="45.00719" lon="6.0234">
        <ele>2208</ele>
        <time>2010-04-21T06:56:16Z</time>
      </trkpt>
      <trkpt lat="45.00711" lon="6.02337">
        <ele>2208</ele>
        <time>2010-04-21T06:56:32Z</time>
      </trkpt>
      <trkpt lat="45.00703" lon="6.02332">
        <ele>2246</ele>
        <time>2010-04-21T06:56:51Z</time>
      </trkpt>
      <trkpt lat="45.00691" lon="6.02328">
        <ele>2246</ele>
        <time>2010-04-21T06:57:10Z</time>
      </trkpt>
      <trkpt lat="45.00679" lon="6.02323">
        <ele>2246</ele>
        <time>2010-04-21T06:57:28Z</time>
      </trkpt>
      <trkpt lat="45.00667" lon="6.02319">
        <ele>2246</ele>
        <time>2010-04-21T06:57:48Z</time>
      </trkpt>
      <trkpt lat="45.00657" lon="6.02315">
        <ele>2246</ele>
        <time>2010-04-21T06:58:06Z</time>
      </trkpt>
      <trkpt lat="45.00653" lon="6.02314">
        <ele>2246</ele>
        <time>2010-04-21T06:58:27Z</time>
      </trkpt>
      <trkpt lat="45.00644" lon="6.02311">
        <ele>2246</ele>
        <time>2010-04-21T06:58:44Z</time>
      </trkpt>
      <trkpt lat="45.00638" lon="6.02308">
        <ele>2246</ele>
        <time>2010-04-21T06:58:54Z</time>
      </trkpt>
      <trkpt lat="45.00629" lon="6.02309">
        <ele>2246</ele>
        <time>2010-04-21T06:59:09Z</time>
      </trkpt>
      <trkpt lat="45.00625" lon="6.02312">
        <ele>2271</ele>
        <time>2010-04-21T06:59:18Z</time>
      </trkpt>
      <trkpt lat="45.00617" lon="6.02319">
        <ele>2271</ele>
        <time>2010-04-21T06:59:33Z</time>
      </trkpt>
      <trkpt lat="45.00614" lon="6.02321">
        <ele>2271</ele>
        <time>2010-04-21T06:59:47Z</time>
      </trkpt>
      <trkpt lat="45.00607" lon="6.02326">
        <ele>2271</ele>
        <time>2010-04-21T07:00:03Z</time>
      </trkpt>
      <trkpt lat="45.006" lon="6.02327">
        <ele>2271</ele>
        <time>2010-04-21T07:00:17Z</time>
      </trkpt>
      <trkpt lat="45.00589" lon="6.02329">
        <ele>2271</ele>
        <time>2010-04-21T07:00:35Z</time>
      </trkpt>
      <trkpt lat="45.00587" lon="6.02328">
        <ele>2271</ele>
        <time>2010-04-21T07:00:58Z</time>
      </trkpt>
      <trkpt lat="45.00576" lon="6.02329">
        <ele>2271</ele>
        <time>2010-04-21T07:01:16Z</time>
      </trkpt>
      <trkpt lat="45.00569" lon="6.0233">
        <ele>2271</ele>
        <time>2010-04-21T07:01:28Z</time>
      </trkpt>
      <trkpt lat="45.00563" lon="6.0232">
        <ele>2271</ele>
        <time>2010-04-21T07:01:41Z</time>
      </trkpt>
      <trkpt lat="45.00562" lon="6.02317">
        <ele>2271</ele>
        <time>2010-04-21T07:02:04Z</time>
      </trkpt>
      <trkpt lat="45.00555" lon="6.02309">
        <ele>2271</ele>
        <time>2010-04-21T07:02:24Z</time>
      </trkpt>
      <trkpt lat="45.00548" lon="6.02301">
        <ele>2271</ele>
        <time>2010-04-21T07:02:38Z</time>
      </trkpt>
      <trkpt lat="45.00543" lon="6.02299">
        <ele>2271</ele>
        <time>2010-04-21T07:03:04Z</time>
      </trkpt>
      <trkpt lat="45.00537" lon="6.02292">
        <ele>2286</ele>
        <time>2010-04-21T07:03:20Z</time>
      </trkpt>
      <trkpt lat="45.00533" lon="6.0229">
        <ele>2296</ele>
        <time>2010-04-21T07:03:28Z</time>
      </trkpt>
      <trkpt lat="45.00525" lon="6.02283">
        <ele>2296</ele>
        <time>2010-04-21T07:03:44Z</time>
      </trkpt>
      <trkpt lat="45.0052" lon="6.02272">
        <ele>2296</ele>
        <time>2010-04-21T07:03:59Z</time>
      </trkpt>
      <trkpt lat="45.00515" lon="6.02268">
        <ele>2296</ele>
        <time>2010-04-21T07:04:15Z</time>
      </trkpt>
      <trkpt lat="45.00509" lon="6.02263">
        <ele>2296</ele>
        <time>2010-04-21T07:04:31Z</time>
      </trkpt>
      <trkpt lat="45.00502" lon="6.02261">
        <ele>2296</ele>
        <time>2010-04-21T07:04:47Z</time>
      </trkpt>
      <trkpt lat="45.00495" lon="6.02261">
        <ele>2296</ele>
        <time>2010-04-21T07:05:04Z</time>
      </trkpt>
      <trkpt lat="45.00494" lon="6.0226">
        <ele>2296</ele>
        <time>2010-04-21T07:05:06Z</time>
      </trkpt>
      <trkpt lat="45.00492" lon="6.02258">
        <ele>2296</ele>
        <time>2010-04-21T07:05:21Z</time>
      </trkpt>
      <trkpt lat="45.00494" lon="6.02244">
        <ele>2296</ele>
        <time>2010-04-21T07:05:39Z</time>
      </trkpt>
      <trkpt lat="45.00498" lon="6.02234">
        <ele>2296</ele>
        <time>2010-04-21T07:05:54Z</time>
      </trkpt>
      <trkpt lat="45.00503" lon="6.02225">
        <ele>2296</ele>
        <time>2010-04-21T07:06:10Z</time>
      </trkpt>
      <trkpt lat="45.00508" lon="6.02216">
        <ele>2296</ele>
        <time>2010-04-21T07:06:27Z</time>
      </trkpt>
      <trkpt lat="45.0051" lon="6.02212">
        <ele>2296</ele>
        <time>2010-04-21T07:06:43Z</time>
      </trkpt>
      <trkpt lat="45.00512" lon="6.02201">
        <ele>2318</ele>
        <time>2010-04-21T07:07:00Z</time>
      </trkpt>
      <trkpt lat="45.0051" lon="6.02191">
        <ele>2318</ele>
        <time>2010-04-21T07:07:14Z</time>
      </trkpt>
      <trkpt lat="45.00506" lon="6.02188">
        <ele>2318</ele>
        <time>2010-04-21T07:07:29Z</time>
      </trkpt>
      <trkpt lat="45.00504" lon="6.02186">
        <ele>2318</ele>
        <time>2010-04-21T07:07:31Z</time>
      </trkpt>
      <trkpt lat="45.00494" lon="6.02175">
        <ele>2318</ele>
        <time>2010-04-21T07:07:52Z</time>
      </trkpt>
      <trkpt lat="45.00494" lon="6.02175">
        <ele>2318</ele>
        <time>2010-04-21T07:07:53Z</time>
      </trkpt>
      <trkpt lat="45.00483" lon="6.02165">
        <ele>2318</ele>
        <time>2010-04-21T07:08:13Z</time>
      </trkpt>
      <trkpt lat="45.00477" lon="6.0216">
        <ele>2318</ele>
        <time>2010-04-21T07:08:32Z</time>
      </trkpt>
      <trkpt lat="45.00477" lon="6.0216">
        <ele>2318</ele>
        <time>2010-04-21T07:09:06Z</time>
      </trkpt>
      <trkpt lat="45.00476" lon="6.02155">
        <ele>2318</ele>
        <time>2010-04-21T07:09:32Z</time>
      </trkpt>
      <trkpt lat="45.00473" lon="6.02154">
        <ele>2318</ele>
        <time>2010-04-21T07:09:58Z</time>
      </trkpt>
      <trkpt lat="45.00468" lon="6.02153">
        <ele>2318</ele>
        <time>2010-04-21T07:10:04Z</time>
      </trkpt>
      <trkpt lat="45.00457" lon="6.0215">
        <ele>2344</ele>
        <time>2010-04-21T07:10:21Z</time>
      </trkpt>
      <trkpt lat="45.00455" lon="6.0215">
        <ele>2344</ele>
        <time>2010-04-21T07:10:37Z</time>
      </trkpt>
      <trkpt lat="45.00455" lon="6.0215">
        <ele>2344</ele>
        <time>2010-04-21T07:10:55Z</time>
      </trkpt>
      <trkpt lat="45.00455" lon="6.0215">
        <ele>2344</ele>
        <time>2010-04-21T07:11:22Z</time>
      </trkpt>
      <trkpt lat="45.00456" lon="6.02149">
        <ele>2344</ele>
        <time>2010-04-21T07:11:52Z</time>
      </trkpt>
      <trkpt lat="45.00455" lon="6.02147">
        <ele>2344</ele>
        <time>2010-04-21T07:12:33Z</time>
      </trkpt>
      <trkpt lat="45.00455" lon="6.02147">
        <ele>2344</ele>
        <time>2010-04-21T07:13:35Z</time>
      </trkpt>
      <trkpt lat="45.00456" lon="6.02149">
        <ele>2344</ele>
        <time>2010-04-21T07:14:04Z</time>
      </trkpt>
      <trkpt lat="45.00457" lon="6.02149">
        <ele>2344</ele>
        <time>2010-04-21T07:14:39Z</time>
      </trkpt>
      <trkpt lat="45.00457" lon="6.02149">
        <ele>2344</ele>
        <time>2010-04-21T07:15:02Z</time>
      </trkpt>
      <trkpt lat="45.00454" lon="6.02151">
        <ele>2344</ele>
        <time>2010-04-21T07:18:36Z</time>
      </trkpt>
      <trkpt lat="45.00454" lon="6.0215">
        <ele>2344</ele>
        <time>2010-04-21T07:20:02Z</time>
      </trkpt>
      <trkpt lat="45.00459" lon="6.0215">
        <ele>2318</ele>
        <time>2010-04-21T07:20:35Z</time>
      </trkpt>
      <trkpt lat="45.00455" lon="6.02147">
        <ele>2344</ele>
        <time>2010-04-21T07:21:09Z</time>
      </trkpt>
      <trkpt lat="45.00457" lon="6.02146">
        <ele>2344</ele>
        <time>2010-04-21T07:21:26Z</time>
      </trkpt>
      <trkpt lat="45.00457" lon="6.02149">
        <ele>2344</ele>
        <time>2010-04-21T07:22:20Z</time>
      </trkpt>
      <trkpt lat="45.00457" lon="6.02148">
        <ele>2344</ele>
        <time>2010-04-21T07:23:40Z</time>
      </trkpt>
      <trkpt lat="45.00452" lon="6.02142">
        <ele>2344</ele>
        <time>2010-04-21T07:23:48Z</time>
      </trkpt>
      <trkpt lat="45.00442" lon="6.0213">
        <ele>2344</ele>
        <time>2010-04-21T07:24:04Z</time>
      </trkpt>
      <trkpt lat="45.00429" lon="6.02115">
        <ele>2348</ele>
        <time>2010-04-21T07:24:23Z</time>
      </trkpt>
      <trkpt lat="45.00419" lon="6.02102">
        <ele>2348</ele>
        <time>2010-04-21T07:24:42Z</time>
      </trkpt>
      <trkpt lat="45.00413" lon="6.02092">
        <ele>2348</ele>
        <time>2010-04-21T07:24:57Z</time>
      </trkpt>
      <trkpt lat="45.00405" lon="6.02081">
        <ele>2348</ele>
        <time>2010-04-21T07:25:14Z</time>
      </trkpt>
      <trkpt lat="45.00395" lon="6.02068">
        <ele>2348</ele>
        <time>2010-04-21T07:25:35Z</time>
      </trkpt>
      <trkpt lat="45.00385" lon="6.02058">
        <ele>2348</ele>
        <time>2010-04-21T07:25:55Z</time>
      </trkpt>
      <trkpt lat="45.00376" lon="6.0205">
        <ele>2348</ele>
        <time>2010-04-21T07:26:11Z</time>
      </trkpt>
      <trkpt lat="45.00373" lon="6.02048">
        <ele>2384</ele>
        <time>2010-04-21T07:26:17Z</time>
      </trkpt>
      <trkpt lat="45.00362" lon="6.02038">
        <ele>2374</ele>
        <time>2010-04-21T07:26:38Z</time>
      </trkpt>
      <trkpt lat="45.00357" lon="6.02034">
        <ele>2374</ele>
        <time>2010-04-21T07:26:48Z</time>
      </trkpt>
      <trkpt lat="45.0035" lon="6.02028">
        <ele>2374</ele>
        <time>2010-04-21T07:27:03Z</time>
      </trkpt>
      <trkpt lat="45.00344" lon="6.02023">
        <ele>2374</ele>
        <time>2010-04-21T07:27:19Z</time>
      </trkpt>
      <trkpt lat="45.00336" lon="6.02025">
        <ele>2374</ele>
        <time>2010-04-21T07:27:37Z</time>
      </trkpt>
      <trkpt lat="45.00333" lon="6.02029">
        <ele>2374</ele>
        <time>2010-04-21T07:27:52Z</time>
      </trkpt>
      <trkpt lat="45.00329" lon="6.02021">
        <ele>2374</ele>
        <time>2010-04-21T07:28:08Z</time>
      </trkpt>
      <trkpt lat="45.00322" lon="6.02011">
        <ele>2374</ele>
        <time>2010-04-21T07:28:27Z</time>
      </trkpt>
      <trkpt lat="45.00315" lon="6.02002">
        <ele>2374</ele>
        <time>2010-04-21T07:28:47Z</time>
      </trkpt>
      <trkpt lat="45.00308" lon="6.0199">
        <ele>2374</ele>
        <time>2010-04-21T07:29:08Z</time>
      </trkpt>
      <trkpt lat="45.00304" lon="6.01984">
        <ele>2374</ele>
        <time>2010-04-21T07:29:19Z</time>
      </trkpt>
      <trkpt lat="45.003" lon="6.01975">
        <ele>2374</ele>
        <time>2010-04-21T07:29:36Z</time>
      </trkpt>
      <trkpt lat="45.00297" lon="6.01967">
        <ele>2374</ele>
        <time>2010-04-21T07:29:48Z</time>
      </trkpt>
      <trkpt lat="45.00292" lon="6.01956">
        <ele>2389</ele>
        <time>2010-04-21T07:30:07Z</time>
      </trkpt>
      <trkpt lat="45.0029" lon="6.01949">
        <ele>2411</ele>
        <time>2010-04-21T07:30:18Z</time>
      </trkpt>
      <trkpt lat="45.00288" lon="6.01939">
        <ele>2411</ele>
        <time>2010-04-21T07:30:35Z</time>
      </trkpt>
      <trkpt lat="45.00286" lon="6.01931">
        <ele>2411</ele>
        <time>2010-04-21T07:30:48Z</time>
      </trkpt>
      <trkpt lat="45.00284" lon="6.01925">
        <ele>2411</ele>
        <time>2010-04-21T07:31:06Z</time>
      </trkpt>
      <trkpt lat="45.00282" lon="6.01915">
        <ele>2411</ele>
        <time>2010-04-21T07:31:24Z</time>
      </trkpt>
      <trkpt lat="45.00279" lon="6.01902">
        <ele>2411</ele>
        <time>2010-04-21T07:31:43Z</time>
      </trkpt>
      <trkpt lat="45.00273" lon="6.01894">
        <ele>2411</ele>
        <time>2010-04-21T07:31:58Z</time>
      </trkpt>
      <trkpt lat="45.00266" lon="6.01899">
        <ele>2411</ele>
        <time>2010-04-21T07:32:12Z</time>
      </trkpt>
      <trkpt lat="45.00256" lon="6.01906">
        <ele>2411</ele>
        <time>2010-04-21T07:32:32Z</time>
      </trkpt>
      <trkpt lat="45.00254" lon="6.01909">
        <ele>2411</ele>
        <time>2010-04-21T07:32:38Z</time>
      </trkpt>
      <trkpt lat="45.00248" lon="6.01917">
        <ele>2411</ele>
        <time>2010-04-21T07:32:54Z</time>
      </trkpt>
      <trkpt lat="45.00239" lon="6.01927">
        <ele>2411</ele>
        <time>2010-04-21T07:33:15Z</time>
      </trkpt>
      <trkpt lat="45.00234" lon="6.01936">
        <ele>2411</ele>
        <time>2010-04-21T07:33:28Z</time>
      </trkpt>
      <trkpt lat="45.00231" lon="6.01934">
        <ele>2411</ele>
        <time>2010-04-21T07:33:45Z</time>
      </trkpt>
      <trkpt lat="45.00225" lon="6.01914">
        <ele>2411</ele>
        <time>2010-04-21T07:34:07Z</time>
      </trkpt>
      <trkpt lat="45.00223" lon="6.01897">
        <ele>2411</ele>
        <time>2010-04-21T07:34:27Z</time>
      </trkpt>
      <trkpt lat="45.00222" lon="6.01884">
        <ele>2411</ele>
        <time>2010-04-21T07:34:43Z</time>
      </trkpt>
      <trkpt lat="45.00222" lon="6.01868">
        <ele>2440</ele>
        <time>2010-04-21T07:35:03Z</time>
      </trkpt>
      <trkpt lat="45.00222" lon="6.01858">
        <ele>2440</ele>
        <time>2010-04-21T07:35:19Z</time>
      </trkpt>
      <trkpt lat="45.0022" lon="6.01857">
        <ele>2440</ele>
        <time>2010-04-21T07:35:34Z</time>
      </trkpt>
      <trkpt lat="45.00214" lon="6.01861">
        <ele>2440</ele>
        <time>2010-04-21T07:35:46Z</time>
      </trkpt>
      <trkpt lat="45.00206" lon="6.01866">
        <ele>2474</ele>
        <time>2010-04-21T07:36:06Z</time>
      </trkpt>
      <trkpt lat="45.00196" lon="6.01872">
        <ele>2474</ele>
        <time>2010-04-21T07:36:25Z</time>
      </trkpt>
      <trkpt lat="45.00195" lon="6.01873">
        <ele>2474</ele>
        <time>2010-04-21T07:36:28Z</time>
      </trkpt>
      <trkpt lat="45.00188" lon="6.0188">
        <ele>2458</ele>
        <time>2010-04-21T07:36:43Z</time>
      </trkpt>
      <trkpt lat="45.00182" lon="6.01891">
        <ele>2458</ele>
        <time>2010-04-21T07:37:00Z</time>
      </trkpt>
      <trkpt lat="45.00178" lon="6.01899">
        <ele>2458</ele>
        <time>2010-04-21T07:37:13Z</time>
      </trkpt>
      <trkpt lat="45.00174" lon="6.0191">
        <ele>2458</ele>
        <time>2010-04-21T07:37:28Z</time>
      </trkpt>
      <trkpt lat="45.00169" lon="6.01922">
        <ele>2458</ele>
        <time>2010-04-21T07:37:45Z</time>
      </trkpt>
      <trkpt lat="45.00161" lon="6.01936">
        <ele>2458</ele>
        <time>2010-04-21T07:38:08Z</time>
      </trkpt>
      <trkpt lat="45.00152" lon="6.01949">
        <ele>2458</ele>
        <time>2010-04-21T07:38:30Z</time>
      </trkpt>
      <trkpt lat="45.00147" lon="6.01962">
        <ele>2460</ele>
        <time>2010-04-21T07:38:50Z</time>
      </trkpt>
      <trkpt lat="45.00144" lon="6.01975">
        <ele>2460</ele>
        <time>2010-04-21T07:39:09Z</time>
      </trkpt>
      <trkpt lat="45.00141" lon="6.01988">
        <ele>2460</ele>
        <time>2010-04-21T07:39:27Z</time>
      </trkpt>
      <trkpt lat="45.00138" lon="6.02">
        <ele>2460</ele>
        <time>2010-04-21T07:39:42Z</time>
      </trkpt>
      <trkpt lat="45.00138" lon="6.02001">
        <ele>2460</ele>
        <time>2010-04-21T07:39:43Z</time>
      </trkpt>
      <trkpt lat="45.00135" lon="6.01994">
        <ele>2460</ele>
        <time>2010-04-21T07:39:55Z</time>
      </trkpt>
      <trkpt lat="45.00134" lon="6.01992">
        <ele>2460</ele>
        <time>2010-04-21T07:39:58Z</time>
      </trkpt>
      <trkpt lat="45.00132" lon="6.01979">
        <ele>2460</ele>
        <time>2010-04-21T07:40:13Z</time>
      </trkpt>
      <trkpt lat="45.00124" lon="6.01961">
        <ele>2493</ele>
        <time>2010-04-21T07:40:34Z</time>
      </trkpt>
      <trkpt lat="45.00119" lon="6.01949">
        <ele>2500</ele>
        <time>2010-04-21T07:40:47Z</time>
      </trkpt>
      <trkpt lat="45.00115" lon="6.01936">
        <ele>2500</ele>
        <time>2010-04-21T07:41:04Z</time>
      </trkpt>
      <trkpt lat="45.00111" lon="6.01918">
        <ele>2500</ele>
        <time>2010-04-21T07:41:27Z</time>
      </trkpt>
      <trkpt lat="45.0011" lon="6.01915">
        <ele>2500</ele>
        <time>2010-04-21T07:41:42Z</time>
      </trkpt>
      <trkpt lat="45.00109" lon="6.01908">
        <ele>2500</ele>
        <time>2010-04-21T07:42:09Z</time>
      </trkpt>
      <trkpt lat="45.00107" lon="6.01902">
        <ele>2500</ele>
        <time>2010-04-21T07:42:16Z</time>
      </trkpt>
      <trkpt lat="45.00103" lon="6.01884">
        <ele>2500</ele>
        <time>2010-04-21T07:42:37Z</time>
      </trkpt>
      <trkpt lat="45.00103" lon="6.01881">
        <ele>2500</ele>
        <time>2010-04-21T07:42:57Z</time>
      </trkpt>
      <trkpt lat="45.00102" lon="6.01879">
        <ele>2500</ele>
        <time>2010-04-21T07:43:28Z</time>
      </trkpt>
      <trkpt lat="45.00102" lon="6.01874">
        <ele>2508</ele>
        <time>2010-04-21T07:43:45Z</time>
      </trkpt>
      <trkpt lat="45.00098" lon="6.01848">
        <ele>2508</ele>
        <time>2010-04-21T07:44:11Z</time>
      </trkpt>
      <trkpt lat="45.00098" lon="6.01844">
        <ele>2508</ele>
        <time>2010-04-21T07:44:15Z</time>
      </trkpt>
      <trkpt lat="45.00096" lon="6.01828">
        <ele>2508</ele>
        <time>2010-04-21T07:44:32Z</time>
      </trkpt>
      <trkpt lat="45.00095" lon="6.0181">
        <ele>2508</ele>
        <time>2010-04-21T07:44:52Z</time>
      </trkpt>
      <trkpt lat="45.00095" lon="6.01806">
        <ele>2508</ele>
        <time>2010-04-21T07:45:08Z</time>
      </trkpt>
      <trkpt lat="45.00092" lon="6.01796">
        <ele>2508</ele>
        <time>2010-04-21T07:45:24Z</time>
      </trkpt>
      <trkpt lat="45.00091" lon="6.01791">
        <ele>2521</ele>
        <time>2010-04-21T07:45:30Z</time>
      </trkpt>
      <trkpt lat="45.00088" lon="6.01782">
        <ele>2521</ele>
        <time>2010-04-21T07:45:43Z</time>
      </trkpt>
      <trkpt lat="45.00084" lon="6.01769">
        <ele>2521</ele>
        <time>2010-04-21T07:46:00Z</time>
      </trkpt>
      <trkpt lat="45.00081" lon="6.01759">
        <ele>2521</ele>
        <time>2010-04-21T07:46:13Z</time>
      </trkpt>
      <trkpt lat="45.0008" lon="6.01743">
        <ele>2521</ele>
        <time>2010-04-21T07:46:33Z</time>
      </trkpt>
      <trkpt lat="45.00082" lon="6.0173">
        <ele>2521</ele>
        <time>2010-04-21T07:46:50Z</time>
      </trkpt>
      <trkpt lat="45.00082" lon="6.01721">
        <ele>2521</ele>
        <time>2010-04-21T07:47:09Z</time>
      </trkpt>
      <trkpt lat="45.00081" lon="6.01709">
        <ele>2521</ele>
        <time>2010-04-21T07:47:28Z</time>
      </trkpt>
      <trkpt lat="45.00077" lon="6.01697">
        <ele>2536</ele>
        <time>2010-04-21T07:47:44Z</time>
      </trkpt>
      <trkpt lat="45.00075" lon="6.01685">
        <ele>2536</ele>
        <time>2010-04-21T07:48:01Z</time>
      </trkpt>
      <trkpt lat="45.00074" lon="6.01678">
        <ele>2536</ele>
        <time>2010-04-21T07:48:10Z</time>
      </trkpt>
      <trkpt lat="45.00074" lon="6.01678">
        <ele>2536</ele>
        <time>2010-04-21T07:48:11Z</time>
      </trkpt>
      <trkpt lat="45.00072" lon="6.01661">
        <ele>2536</ele>
        <time>2010-04-21T07:48:31Z</time>
      </trkpt>
      <trkpt lat="45.00071" lon="6.01651">
        <ele>2536</ele>
        <time>2010-04-21T07:48:43Z</time>
      </trkpt>
      <trkpt lat="45.0007" lon="6.01647">
        <ele>2536</ele>
        <time>2010-04-21T07:48:48Z</time>
      </trkpt>
      <trkpt lat="45.00067" lon="6.01633">
        <ele>2536</ele>
        <time>2010-04-21T07:49:06Z</time>
      </trkpt>
      <trkpt lat="45.00065" lon="6.01622">
        <ele>2552</ele>
        <time>2010-04-21T07:49:21Z</time>
      </trkpt>
      <trkpt lat="45.00062" lon="6.0161">
        <ele>2552</ele>
        <time>2010-04-21T07:49:38Z</time>
      </trkpt>
      <trkpt lat="45.00056" lon="6.01599">
        <ele>2552</ele>
        <time>2010-04-21T07:49:56Z</time>
      </trkpt>
      <trkpt lat="45.00051" lon="6.01591">
        <ele>2552</ele>
        <time>2010-04-21T07:50:13Z</time>
      </trkpt>
      <trkpt lat="45.0004" lon="6.0158">
        <ele>2568</ele>
        <time>2010-04-21T07:50:35Z</time>
      </trkpt>
      <trkpt lat="45.00032" lon="6.01575">
        <ele>2568</ele>
        <time>2010-04-21T07:50:53Z</time>
      </trkpt>
      <trkpt lat="45.00022" lon="6.01569">
        <ele>2568</ele>
        <time>2010-04-21T07:51:12Z</time>
      </trkpt>
      <trkpt lat="45.0001" lon="6.01563">
        <ele>2568</ele>
        <time>2010-04-21T07:51:34Z</time>
      </trkpt>
      <trkpt lat="45.00008" lon="6.01558">
        <ele>2568</ele>
        <time>2010-04-21T07:51:51Z</time>
      </trkpt>
      <trkpt lat="45.00013" lon="6.01551">
        <ele>2568</ele>
        <time>2010-04-21T07:52:01Z</time>
      </trkpt>
      <trkpt lat="45.00019" lon="6.01544">
        <ele>2568</ele>
        <time>2010-04-21T07:52:19Z</time>
      </trkpt>
      <trkpt lat="45.00024" lon="6.01535">
        <ele>2586</ele>
        <time>2010-04-21T07:52:36Z</time>
      </trkpt>
      <trkpt lat="45.00027" lon="6.01529">
        <ele>2586</ele>
        <time>2010-04-21T07:52:52Z</time>
      </trkpt>
      <trkpt lat="45.00023" lon="6.01527">
        <ele>2586</ele>
        <time>2010-04-21T07:53:03Z</time>
      </trkpt>
      <trkpt lat="45.00019" lon="6.01525">
        <ele>2586</ele>
        <time>2010-04-21T07:53:14Z</time>
      </trkpt>
      <trkpt lat="45.00011" lon="6.0152">
        <ele>2586</ele>
        <time>2010-04-21T07:53:33Z</time>
      </trkpt>
      <trkpt lat="45.00004" lon="6.01517">
        <ele>2586</ele>
        <time>2010-04-21T07:53:50Z</time>
      </trkpt>
      <trkpt lat="45.00004" lon="6.01517">
        <ele>2586</ele>
        <time>2010-04-21T07:53:53Z</time>
      </trkpt>
      <trkpt lat="45.00009" lon="6.01508">
        <ele>2586</ele>
        <time>2010-04-21T07:54:13Z</time>
      </trkpt>
      <trkpt lat="45.00014" lon="6.01496">
        <ele>2586</ele>
        <time>2010-04-21T07:54:29Z</time>
      </trkpt>
      <trkpt lat="45.00018" lon="6.01483">
        <ele>2586</ele>
        <time>2010-04-21T07:54:47Z</time>
      </trkpt>
      <trkpt lat="45.00017" lon="6.01471">
        <ele>2586</ele>
        <time>2010-04-21T07:55:05Z</time>
      </trkpt>
      <trkpt lat="45.00014" lon="6.01463">
        <ele>2586</ele>
        <time>2010-04-21T07:55:22Z</time>
      </trkpt>
      <trkpt lat="45.00014" lon="6.01461">
        <ele>2586</ele>
        <time>2010-04-21T07:55:25Z</time>
      </trkpt>
      <trkpt lat="45.00012" lon="6.01457">
        <ele>2615</ele>
        <time>2010-04-21T07:55:33Z</time>
      </trkpt>
      <trkpt lat="45.00007" lon="6.01451">
        <ele>2615</ele>
        <time>2010-04-21T07:55:50Z</time>
      </trkpt>
      <trkpt lat="45.00002" lon="6.01449">
        <ele>2615</ele>
        <time>2010-04-21T07:56:06Z</time>
      </trkpt>
      <trkpt lat="45.00008" lon="6.01436">
        <ele>2615</ele>
        <time>2010-04-21T07:56:23Z</time>
      </trkpt>
      <trkpt lat="45.00009" lon="6.01433">
        <ele>2615</ele>
        <time>2010-04-21T07:56:28Z</time>
      </trkpt>
      <trkpt lat="45.00011" lon="6.01427">
        <ele>2615</ele>
        <time>2010-04-21T07:56:37Z</time>
      </trkpt>
      <trkpt lat="45.00014" lon="6.01419">
        <ele>2615</ele>
        <time>2010-04-21T07:56:50Z</time>
      </trkpt>
      <trkpt lat="45.00015" lon="6.01418">
        <ele>2615</ele>
        <time>2010-04-21T07:56:51Z</time>
      </trkpt>
      <trkpt lat="45.00023" lon="6.01414">
        <ele>2615</ele>
        <time>2010-04-21T07:57:07Z</time>
      </trkpt>
      <trkpt lat="45.00031" lon="6.01414">
        <ele>2615</ele>
        <time>2010-04-21T07:57:24Z</time>
      </trkpt>
      <trkpt lat="45.00037" lon="6.01415">
        <ele>2615</ele>
        <time>2010-04-21T07:57:37Z</time>
      </trkpt>
      <trkpt lat="45.00042" lon="6.01416">
        <ele>2636</ele>
        <time>2010-04-21T07:57:47Z</time>
      </trkpt>
      <trkpt lat="45.00051" lon="6.01417">
        <ele>2636</ele>
        <time>2010-04-21T07:58:05Z</time>
      </trkpt>
      <trkpt lat="45.00058" lon="6.01418">
        <ele>2636</ele>
        <time>2010-04-21T07:58:20Z</time>
      </trkpt>
      <trkpt lat="45.00065" lon="6.01418">
        <ele>2636</ele>
        <time>2010-04-21T07:58:41Z</time>
      </trkpt>
      <trkpt lat="45.00066" lon="6.01418">
        <ele>2636</ele>
        <time>2010-04-21T07:58:57Z</time>
      </trkpt>
      <trkpt lat="45.00061" lon="6.01409">
        <ele>2636</ele>
        <time>2010-04-21T07:59:15Z</time>
      </trkpt>
      <trkpt lat="45.00059" lon="6.01402">
        <ele>2636</ele>
        <time>2010-04-21T07:59:28Z</time>
      </trkpt>
      <trkpt lat="45.00055" lon="6.01392">
        <ele>2636</ele>
        <time>2010-04-21T07:59:46Z</time>
      </trkpt>
      <trkpt lat="45.0005" lon="6.01383">
        <ele>2636</ele>
        <time>2010-04-21T08:00:07Z</time>
      </trkpt>
      <trkpt lat="45.00047" lon="6.01377">
        <ele>2636</ele>
        <time>2010-04-21T08:00:24Z</time>
      </trkpt>
      <trkpt lat="45.00045" lon="6.01371">
        <ele>2676</ele>
        <time>2010-04-21T08:00:41Z</time>
      </trkpt>
      <trkpt lat="45.00043" lon="6.01364">
        <ele>2676</ele>
        <time>2010-04-21T08:00:52Z</time>
      </trkpt>
      <trkpt lat="45.00042" lon="6.0136">
        <ele>2646</ele>
        <time>2010-04-21T08:00:59Z</time>
      </trkpt>
      <trkpt lat="45.00039" lon="6.0135">
        <ele>2646</ele>
        <time>2010-04-21T08:01:18Z</time>
      </trkpt>
      <trkpt lat="45.00036" lon="6.01343">
        <ele>2646</ele>
        <time>2010-04-21T08:01:35Z</time>
      </trkpt>
      <trkpt lat="45.00033" lon="6.01337">
        <ele>2646</ele>
        <time>2010-04-21T08:01:52Z</time>
      </trkpt>
      <trkpt lat="45.0003" lon="6.01327">
        <ele>2646</ele>
        <time>2010-04-21T08:02:10Z</time>
      </trkpt>
      <trkpt lat="45.00034" lon="6.01328">
        <ele>2646</ele>
        <time>2010-04-21T08:02:29Z</time>
      </trkpt>
      <trkpt lat="45.00043" lon="6.0133">
        <ele>2676</ele>
        <time>2010-04-21T08:02:44Z</time>
      </trkpt>
      <trkpt lat="45.00052" lon="6.01332">
        <ele>2676</ele>
        <time>2010-04-21T08:03:00Z</time>
      </trkpt>
      <trkpt lat="45.00059" lon="6.01334">
        <ele>2676</ele>
        <time>2010-04-21T08:03:15Z</time>
      </trkpt>
      <trkpt lat="45.0006" lon="6.01334">
        <ele>2676</ele>
        <time>2010-04-21T08:03:16Z</time>
      </trkpt>
      <trkpt lat="45.00061" lon="6.01335">
        <ele>2676</ele>
        <time>2010-04-21T08:03:20Z</time>
      </trkpt>
      <trkpt lat="45.00058" lon="6.01329">
        <ele>2676</ele>
        <time>2010-04-21T08:03:38Z</time>
      </trkpt>
      <trkpt lat="45.00054" lon="6.0132">
        <ele>2676</ele>
        <time>2010-04-21T08:03:53Z</time>
      </trkpt>
      <trkpt lat="45.00051" lon="6.01313">
        <ele>2676</ele>
        <time>2010-04-21T08:04:15Z</time>
      </trkpt>
      <trkpt lat="45.00049" lon="6.01306">
        <ele>2676</ele>
        <time>2010-04-21T08:04:26Z</time>
      </trkpt>
      <trkpt lat="45.00049" lon="6.01306">
        <ele>2676</ele>
        <time>2010-04-21T08:04:27Z</time>
      </trkpt>
      <trkpt lat="45.00046" lon="6.01296">
        <ele>2676</ele>
        <time>2010-04-21T08:04:46Z</time>
      </trkpt>
      <trkpt lat="45.00042" lon="6.01285">
        <ele>2715</ele>
        <time>2010-04-21T08:05:02Z</time>
      </trkpt>
      <trkpt lat="45.00041" lon="6.0128">
        <ele>2686</ele>
        <time>2010-04-21T08:05:10Z</time>
      </trkpt>
      <trkpt lat="45.00037" lon="6.01275">
        <ele>2686</ele>
        <time>2010-04-21T08:05:29Z</time>
      </trkpt>
      <trkpt lat="45.00034" lon="6.01268">
        <ele>2686</ele>
        <time>2010-04-21T08:05:47Z</time>
      </trkpt>
      <trkpt lat="45.0004" lon="6.01269">
        <ele>2686</ele>
        <time>2010-04-21T08:06:03Z</time>
      </trkpt>
      <trkpt lat="45.0005" lon="6.01271">
        <ele>2715</ele>
        <time>2010-04-21T08:06:20Z</time>
      </trkpt>
      <trkpt lat="45.00054" lon="6.01272">
        <ele>2715</ele>
        <time>2010-04-21T08:06:37Z</time>
      </trkpt>
      <trkpt lat="45.00062" lon="6.01275">
        <ele>2715</ele>
        <time>2010-04-21T08:06:57Z</time>
      </trkpt>
      <trkpt lat="45.00061" lon="6.01274">
        <ele>2715</ele>
        <time>2010-04-21T08:07:12Z</time>
      </trkpt>
      <trkpt lat="45.00059" lon="6.01265">
        <ele>2715</ele>
        <time>2010-04-21T08:07:27Z</time>
      </trkpt>
      <trkpt lat="45.00054" lon="6.01256">
        <ele>2715</ele>
        <time>2010-04-21T08:07:45Z</time>
      </trkpt>
      <trkpt lat="45.00051" lon="6.0125">
        <ele>2715</ele>
        <time>2010-04-21T08:08:02Z</time>
      </trkpt>
      <trkpt lat="45.00053" lon="6.01251">
        <ele>2715</ele>
        <time>2010-04-21T08:08:17Z</time>
      </trkpt>
      <trkpt lat="45.00059" lon="6.01252">
        <ele>2715</ele>
        <time>2010-04-21T08:08:31Z</time>
      </trkpt>
      <trkpt lat="45.00068" lon="6.01256">
        <ele>2715</ele>
        <time>2010-04-21T08:08:50Z</time>
      </trkpt>
      <trkpt lat="45.00066" lon="6.01251">
        <ele>2715</ele>
        <time>2010-04-21T08:09:10Z</time>
      </trkpt>
      <trkpt lat="45.00063" lon="6.01243">
        <ele>2715</ele>
        <time>2010-04-21T08:09:30Z</time>
      </trkpt>
      <trkpt lat="45.0006" lon="6.01234">
        <ele>2715</ele>
        <time>2010-04-21T08:09:47Z</time>
      </trkpt>
      <trkpt lat="45.00059" lon="6.01232">
        <ele>2715</ele>
        <time>2010-04-21T08:09:52Z</time>
      </trkpt>
      <trkpt lat="45.00055" lon="6.01225">
        <ele>2715</ele>
        <time>2010-04-21T08:10:13Z</time>
      </trkpt>
      <trkpt lat="45.00055" lon="6.0122">
        <ele>2715</ele>
        <time>2010-04-21T08:10:38Z</time>
      </trkpt>
      <trkpt lat="45.00059" lon="6.01221">
        <ele>2715</ele>
        <time>2010-04-21T08:10:56Z</time>
      </trkpt>
      <trkpt lat="45.00066" lon="6.01223">
        <ele>2715</ele>
        <time>2010-04-21T08:11:11Z</time>
      </trkpt>
      <trkpt lat="45.00071" lon="6.01225">
        <ele>2715</ele>
        <time>2010-04-21T08:11:26Z</time>
      </trkpt>
      <trkpt lat="45.00074" lon="6.01228">
        <ele>2715</ele>
        <time>2010-04-21T08:11:41Z</time>
      </trkpt>
      <trkpt lat="45.00076" lon="6.01229">
        <ele>2715</ele>
        <time>2010-04-21T08:11:51Z</time>
      </trkpt>
      <trkpt lat="45.00077" lon="6.01229">
        <ele>2715</ele>
        <time>2010-04-21T08:12:18Z</time>
      </trkpt>
      <trkpt lat="45.00072" lon="6.01223">
        <ele>2715</ele>
        <time>2010-04-21T08:12:35Z</time>
      </trkpt>
      <trkpt lat="45.0007" lon="6.01221">
        <ele>2715</ele>
        <time>2010-04-21T08:12:50Z</time>
      </trkpt>
      <trkpt lat="45.00071" lon="6.0122">
        <ele>2715</ele>
        <time>2010-04-21T08:13:13Z</time>
      </trkpt>
      <trkpt lat="45.00074" lon="6.01221">
        <ele>2715</ele>
        <time>2010-04-21T08:13:28Z</time>
      </trkpt>
      <trkpt lat="45.00075" lon="6.01223">
        <ele>2715</ele>
        <time>2010-04-21T08:13:46Z</time>
      </trkpt>
      <trkpt lat="45.00077" lon="6.01223">
        <ele>2715</ele>
        <time>2010-04-21T08:14:03Z</time>
      </trkpt>
      <trkpt lat="45.00079" lon="6.01224">
        <ele>2715</ele>
        <time>2010-04-21T08:14:21Z</time>
      </trkpt>
      <trkpt lat="45.00081" lon="6.01225">
        <ele>2715</ele>
        <time>2010-04-21T08:14:36Z</time>
      </trkpt>
      <trkpt lat="45.00084" lon="6.01228">
        <ele>2715</ele>
        <time>2010-04-21T08:14:51Z</time>
      </trkpt>
      <trkpt lat="45.00084" lon="6.01227">
        <ele>2715</ele>
        <time>2010-04-21T08:15:11Z</time>
      </trkpt>
      <trkpt lat="45.00084" lon="6.01227">
        <ele>2715</ele>
        <time>2010-04-21T08:15:31Z</time>
      </trkpt>
      <trkpt lat="45.00083" lon="6.01224">
        <ele>2715</ele>
        <time>2010-04-21T08:15:50Z</time>
      </trkpt>
      <trkpt lat="45.00082" lon="6.01219">
        <ele>2715</ele>
        <time>2010-04-21T08:16:07Z</time>
      </trkpt>
      <trkpt lat="45.00081" lon="6.01215">
        <ele>2715</ele>
        <time>2010-04-21T08:16:22Z</time>
      </trkpt>
      <trkpt lat="45.00079" lon="6.0121">
        <ele>2715</ele>
        <time>2010-04-21T08:16:37Z</time>
      </trkpt>
      <trkpt lat="45.00079" lon="6.0121">
        <ele>2715</ele>
        <time>2010-04-21T08:16:57Z</time>
      </trkpt>
      <trkpt lat="45.00083" lon="6.01211">
        <ele>2715</ele>
        <time>2010-04-21T08:17:20Z</time>
      </trkpt>
      <trkpt lat="45.00086" lon="6.01212">
        <ele>2715</ele>
        <time>2010-04-21T08:17:33Z</time>
      </trkpt>
      <trkpt lat="45.00087" lon="6.01212">
        <ele>2715</ele>
        <time>2010-04-21T08:17:49Z</time>
      </trkpt>
      <trkpt lat="45.00086" lon="6.01208">
        <ele>2723</ele>
        <time>2010-04-21T08:17:59Z</time>
      </trkpt>
      <trkpt lat="45.00084" lon="6.01203">
        <ele>2723</ele>
        <time>2010-04-21T08:18:17Z</time>
      </trkpt>
      <trkpt lat="45.00089" lon="6.01204">
        <ele>2723</ele>
        <time>2010-04-21T08:18:36Z</time>
      </trkpt>
      <trkpt lat="45.00093" lon="6.01206">
        <ele>2723</ele>
        <time>2010-04-21T08:18:49Z</time>
      </trkpt>
      <trkpt lat="45.00097" lon="6.01208">
        <ele>2723</ele>
        <time>2010-04-21T08:19:03Z</time>
      </trkpt>
      <trkpt lat="45.00097" lon="6.01209">
        <ele>2715</ele>
        <time>2010-04-21T08:19:25Z</time>
      </trkpt>
      <trkpt lat="45.0009" lon="6.01198">
        <ele>2723</ele>
        <time>2010-04-21T08:19:55Z</time>
      </trkpt>
      <trkpt lat="45.00089" lon="6.01196">
        <ele>2723</ele>
        <time>2010-04-21T08:20:13Z</time>
      </trkpt>
      <trkpt lat="45.00085" lon="6.01193">
        <ele>2723</ele>
        <time>2010-04-21T08:20:38Z</time>
      </trkpt>
      <trkpt lat="45.00075" lon="6.01179">
        <ele>2723</ele>
        <time>2010-04-21T08:20:56Z</time>
      </trkpt>
      <trkpt lat="45.0007" lon="6.01174">
        <ele>2723</ele>
        <time>2010-04-21T08:21:22Z</time>
      </trkpt>
      <trkpt lat="45.00068" lon="6.01171">
        <ele>2723</ele>
        <time>2010-04-21T08:21:27Z</time>
      </trkpt>
      <trkpt lat="45.00058" lon="6.01156">
        <ele>2723</ele>
        <time>2010-04-21T08:21:49Z</time>
      </trkpt>
      <trkpt lat="45.00051" lon="6.01149">
        <ele>2723</ele>
        <time>2010-04-21T08:22:15Z</time>
      </trkpt>
      <trkpt lat="45.00043" lon="6.01142">
        <ele>2723</ele>
        <time>2010-04-21T08:22:29Z</time>
      </trkpt>
      <trkpt lat="45.00039" lon="6.01138">
        <ele>2730</ele>
        <time>2010-04-21T08:22:49Z</time>
      </trkpt>
      <trkpt lat="45.00035" lon="6.01132">
        <ele>2730</ele>
        <time>2010-04-21T08:23:17Z</time>
      </trkpt>
      <trkpt lat="45.00029" lon="6.01126">
        <ele>2730</ele>
        <time>2010-04-21T08:23:28Z</time>
      </trkpt>
      <trkpt lat="45.00016" lon="6.01112">
        <ele>2756</ele>
        <time>2010-04-21T08:23:49Z</time>
      </trkpt>
      <trkpt lat="45.00013" lon="6.01108">
        <ele>2756</ele>
        <time>2010-04-21T08:23:56Z</time>
      </trkpt>
      <trkpt lat="45.00008" lon="6.01103">
        <ele>2756</ele>
        <time>2010-04-21T08:24:09Z</time>
      </trkpt>
      <trkpt lat="45.00008" lon="6.01103">
        <ele>2756</ele>
        <time>2010-04-21T08:24:11Z</time>
      </trkpt>
      <trkpt lat="45.00006" lon="6.011">
        <ele>2756</ele>
        <time>2010-04-21T08:24:25Z</time>
      </trkpt>
      <trkpt lat="45.00001" lon="6.01097">
        <ele>2756</ele>
        <time>2010-04-21T08:24:45Z</time>
      </trkpt>
      <trkpt lat="44.99998" lon="6.01095">
        <ele>2756</ele>
        <time>2010-04-21T08:25:13Z</time>
      </trkpt>
      <trkpt lat="44.99996" lon="6.01096">
        <ele>2756</ele>
        <time>2010-04-21T08:25:17Z</time>
      </trkpt>
      <trkpt lat="44.99987" lon="6.01098">
        <ele>2756</ele>
        <time>2010-04-21T08:25:32Z</time>
      </trkpt>
      <trkpt lat="44.99987" lon="6.01098">
        <ele>2756</ele>
        <time>2010-04-21T08:25:44Z</time>
      </trkpt>
      <trkpt lat="44.99987" lon="6.01098">
        <ele>2756</ele>
      </trkpt>
      <trkpt lat="44.99993" lon="6.01036">
        <ele>2720</ele>
      </trkpt>
      <trkpt lat="44.99993" lon="6.00944">
        <ele>2686</ele>
      </trkpt>
      <trkpt lat="44.99982" lon="6.00894">
        <ele>2686</ele>
      </trkpt>
      <trkpt lat="44.99982" lon="6.00811">
        <ele>2652</ele>
      </trkpt>
      <trkpt lat="44.99982" lon="6.00731">
        <ele>2602</ele>
      </trkpt>
      <trkpt lat="45.00011" lon="6.00654">
        <ele>2573</ele>
      </trkpt>
      <trkpt lat="45.00046" lon="6.00583">
        <ele>2565</ele>
      </trkpt>
      <trkpt lat="45.00087" lon="6.00482">
        <ele>2543</ele>
      </trkpt>
      <trkpt lat="45.00131" lon="6.00412">
        <ele>2556</ele>
      </trkpt>
      <trkpt lat="45.00167" lon="6.00319">
        <ele>2544</ele>
      </trkpt>
      <trkpt lat="45.0019" lon="6.00242">
        <ele>2533</ele>
      </trkpt>
      <trkpt lat="45.00214" lon="6.00169">
        <ele>2567</ele>
      </trkpt>
      <trkpt lat="45.00249" lon="6.0015">
        <ele>2567</ele>
      </trkpt>
      <trkpt lat="45.00276" lon="6.00173">
        <ele>2567</ele>
      </trkpt>
      <trkpt lat="45.00307" lon="6.00182">
        <ele>2526</ele>
      </trkpt>
      <trkpt lat="45.00372" lon="6.0015">
        <ele>2526</ele>
      </trkpt>
      <trkpt lat="45.00405" lon="6.00116">
        <ele>2462</ele>
      </trkpt>
      <trkpt lat="45.00457" lon="6.00101">
        <ele>2462</ele>
      </trkpt>
      <trkpt lat="45.00498" lon="6.00073">
        <ele>2428</ele>
      </trkpt>
      <trkpt lat="45.00571" lon="6.00045">
        <ele>2402</ele>
      </trkpt>
      <trkpt lat="45.00607" lon="6.00049">
        <ele>2402</ele>
      </trkpt>
      <trkpt lat="45.00705" lon="6.00101">
        <ele>2374</ele>
      </trkpt>
      <trkpt lat="45.00784" lon="6.00156">
        <ele>2305</ele>
      </trkpt>
      <trkpt lat="45.00872" lon="6.00242">
        <ele>2237</ele>
      </trkpt>
      <trkpt lat="45.00905" lon="6.00324">
        <ele>2183</ele>
      </trkpt>
      <trkpt lat="45.00981" lon="6.00423">
        <ele>2113</ele>
      </trkpt>
      <trkpt lat="45.01039" lon="6.00491">
        <ele>2092</ele>
      </trkpt>
      <trkpt lat="45.01102" lon="6.00551">
        <ele>2024</ele>
      </trkpt>
      <trkpt lat="45.01172" lon="6.00611">
        <ele>1997</ele>
      </trkpt>
      <trkpt lat="45.01236" lon="6.00637">
        <ele>1950</ele>
      </trkpt>
      <trkpt lat="45.01306" lon="6.00676">
        <ele>1924</ele>
      </trkpt>
      <trkpt lat="45.01382" lon="6.00744">
        <ele>1919</ele>
      </trkpt>
      <trkpt lat="45.01382" lon="6.00744">
        <ele>1919</ele>
      </trkpt>
      <trkpt lat="45.01394" lon="6.00835">
        <ele>1946</ele>
      </trkpt>
      <trkpt lat="45.01324" lon="6.00839">
        <ele>1973</ele>
      </trkpt>
      <trkpt lat="45.01378" lon="6.0101">
        <ele>1981</ele>
      </trkpt>
      <trkpt lat="45.01321" lon="6.00989">
        <ele>2025</ele>
      </trkpt>
      <trkpt lat="45.01388" lon="6.01122">
        <ele>2003</ele>
      </trkpt>
      <trkpt lat="45.01342" lon="6.01122">
        <ele>2051</ele>
      </trkpt>
      <trkpt lat="45.0143" lon="6.01281">
        <ele>2074</ele>
      </trkpt>
      <trkpt lat="45.01394" lon="6.01298">
        <ele>2080</ele>
      </trkpt>
      <trkpt lat="45.01424" lon="6.0138">
        <ele>2071</ele>
      </trkpt>
      <trkpt lat="45.01385" lon="6.0138">
        <ele>2071</ele>
      </trkpt>
      <trkpt lat="45.01415" lon="6.01457">
        <ele>2071</ele>
      </trkpt>
      <trkpt lat="45.0146" lon="6.01556">
        <ele>2090</ele>
      </trkpt>
      <trkpt lat="45.01518" lon="6.01684">
        <ele>2124</ele>
      </trkpt>
      <trkpt lat="45.0147" lon="6.01736">
        <ele>2160</ele>
      </trkpt>
      <trkpt lat="45.01476" lon="6.01779">
        <ele>2160</ele>
      </trkpt>
      <trkpt lat="45.01588" lon="6.01847">
        <ele>2149</ele>
      </trkpt>
      <trkpt lat="45.01658" lon="6.01899">
        <ele>2130</ele>
      </trkpt>
      <trkpt lat="45.01736" lon="6.0195">
        <ele>2110</ele>
      </trkpt>
      <trkpt lat="45.01827" lon="6.02032">
        <ele>2100</ele>
      </trkpt>
      <trkpt lat="45.019" lon="6.02113">
        <ele>2086</ele>
      </trkpt>
      <trkpt lat="45.02064" lon="6.02362">
        <ele>2065</ele>
      </trkpt>
      <trkpt lat="45.02125" lon="6.02452">
        <ele>2075</ele>
      </trkpt>
      <trkpt lat="45.02225" lon="6.02525">
        <ele>2027</ele>
      </trkpt>
      <trkpt lat="45.02319" lon="6.0256">
        <ele>2032</ele>
      </trkpt>
      <trkpt lat="45.02398" lon="6.02594">
        <ele>2019</ele>
      </trkpt>
      <trkpt lat="45.02425" lon="6.02611">
        <ele>2019</ele>
      </trkpt>
      <trkpt lat="45.02404" lon="6.02671">
        <ele>2013</ele>
      </trkpt>
      <trkpt lat="45.02407" lon="6.02753">
        <ele>1970</ele>
      </trkpt>
      <trkpt lat="45.02361" lon="6.02813">
        <ele>1934</ele>
      </trkpt>
      <trkpt lat="45.02431" lon="6.02864">
        <ele>1932</ele>
      </trkpt>
      <trkpt lat="45.02461" lon="6.02916">
        <ele>1861</ele>
      </trkpt>
      <trkpt lat="45.02452" lon="6.03019">
        <ele>1864</ele>
      </trkpt>
      <trkpt lat="45.02367" lon="6.03075">
        <ele>1830</ele>
      </trkpt>
      <trkpt lat="45.02358" lon="6.03199">
        <ele>1803</ele>
      </trkpt>
      <trkpt lat="45.02258" lon="6.03246">
        <ele>1757</ele>
      </trkpt>
      <trkpt lat="45.02292" lon="6.03345">
        <ele>1728</ele>
      </trkpt>
      <trkpt lat="45.02167" lon="6.03375">
        <ele>1688</ele>
      </trkpt>
      <trkpt lat="45.02234" lon="6.03508">
        <ele>1685</ele>
      </trkpt>
      <trkpt lat="45.02149" lon="6.03585">
        <ele>1652</ele>
      </trkpt>
      <trkpt lat="45.02188" lon="6.03697">
        <ele>1648</ele>
      </trkpt>
      <trkpt lat="45.02091" lon="6.03744">
        <ele>1628</ele>
      </trkpt>
      <trkpt lat="45.0211" lon="6.03851">
        <ele>1633</ele>
      </trkpt>
      <trkpt lat="45.01961" lon="6.0392">
        <ele>1605</ele>
      </trkpt>
      <trkpt lat="45.01909" lon="6.03877">
        <ele>1566</ele>
      </trkpt>
    </trkseg>
  </trk>
</gpx>